
Distance (Route):
Temperature : -15.5°C
Humidity : 27.7%
Pressure : 449.8hPa| Receiver | Frames | First received | Last received |
|---|---|---|---|
| OM5KV | 260 | 2026-09-05 00:00:51 | 2026-09-05 01:01:28 |
| GYPAP8-17 | 66 | 2026-09-04 23:37:54 | 2026-09-05 01:04:31 |
| LZ4TU-5 | 66 | 2026-09-04 23:46:00 | 2026-09-05 01:02:50 |
| 9A1FER-3 | 21 | 2026-09-05 00:39:41 | 2026-09-05 00:55:47 |
| 9A1FER-10 | 12 | 2026-09-05 00:45:16 | 2026-09-05 00:56:12 |
| Receiver | Date | Latitude | Longitude | Direction | Speed | Altitude | Climb | Temperature | Humidity | Pressure | Voltage | Killtimer | Uptime | BKT | XDATA |
|---|---|---|---|---|---|---|---|---|---|---|---|---|---|---|---|
| GYPAP8-17 | 2026-09-05 01:04:31 | 46.06380 | 20.71511 | 128° | 47km/h | 6716m | -18.2m/s | -15.5°C | 27.7% | 449.8hPa | 2.6V | 08:18:00 | 00:00:00 | 00:00:00 | |
| GYPAP8-17 | 2026-09-05 01:03:17 | 46.06707 | 20.70181 | 106° | 60km/h | 8131m | -18.8m/s | -24.9°C | 17.7% | 372.0hPa | 2.6V | 00:00:00 | 00:00:00 | 00:00:00 | |
| LZ4TU-5 | 2026-09-05 01:02:50 | 46.06821 | 20.69642 | 108° | 64km/h | 8666m | -20.1m/s | -29.4°C | 16.5% | 345.5hPa | 2.6V | 08:20:00 | 00:00:00 | 00:00:00 | |
| LZ4TU-5 | 2026-09-05 01:02:45 | 46.06848 | 20.69532 | 109° | 66km/h | 8766m | -20.0m/s | -30.0°C | 17.1% | 340.7hPa | 2.6V | 00:00:00 | 00:00:00 | 00:00:00 | |
| GYPAP8-17 | 2026-09-05 01:02:16 | 46.06989 | 20.68930 | 109° | 58km/h | 9348m | -19.6m/s | -34.2°C | 15.5% | 313.7hPa | 2.6V | 00:00:00 | 00:00:00 | 00:00:00 | |
| OM5KV | 2026-09-05 01:01:28 | 46.07271 | 20.68001 | 118° | 69km/h | 10420m | -25.2m/s | -42.0°C | 17.9% | 268.7hPa | 2.6V | 08:22:00 | 00:00:00 | 00:00:00 | |
| OM5KV | 2026-09-05 01:01:15 | 46.07371 | 20.67737 | 122° | 73km/h | 10729m | -25.4m/s | -44.5°C | 18.0% | 256.8hPa | 2.6V | 08:22:00 | 00:00:00 | 00:00:00 | |
| OM5KV | 2026-09-05 01:01:09 | 46.07429 | 20.67604 | 125° | 75km/h | 10885m | -25.6m/s | -45.4°C | 19.2% | 251.0hPa | 2.6V | 08:22:00 | 00:00:00 | 00:00:00 | |
| OM5KV | 2026-09-05 01:01:03 | 46.07486 | 20.67467 | 124° | 71km/h | 11040m | -26.2m/s | -46.6°C | 20.7% | 245.4hPa | 2.6V | 08:23:00 | 00:00:00 | 00:00:00 | |
| OM5KV | 2026-09-05 01:01:02 | 46.07496 | 20.67445 | 123° | 73km/h | 11065m | -25.5m/s | -46.8°C | 21.1% | 244.2hPa | 2.6V | 08:23:00 | 00:00:00 | 00:00:00 | |
| OM5KV | 2026-09-05 01:00:57 | 46.07542 | 20.67334 | 124° | 71km/h | 11197m | -26.1m/s | -47.9°C | 23.1% | 239.4hPa | 2.6V | 08:23:00 | 00:00:00 | 00:00:00 | |
| GYPAP8-17 | 2026-09-05 01:00:53 | 46.07579 | 20.67245 | 120° | 68km/h | 11300m | -26.6m/s | -48.8°C | 24.8% | 235.7hPa | 2.6V | 00:00:00 | 00:00:00 | 00:00:00 | |
| OM5KV | 2026-09-05 01:00:51 | 46.07597 | 20.67202 | 121° | 71km/h | 11352m | -25.5m/s | -49.2°C | 25.5% | 233.9hPa | 2.6V | 08:23:00 | 00:00:00 | 00:00:00 | |
| OM5KV | 2026-09-05 01:00:36 | 46.07725 | 20.66888 | 124° | 68km/h | 11743m | -27.0m/s | -52.5°C | 30.1% | 220.3hPa | 2.6V | 08:23:00 | 00:00:00 | 00:00:00 | |
| LZ4TU-5 | 2026-09-05 01:00:32 | 46.07761 | 20.66808 | 126° | 66km/h | 11853m | -27.2m/s | -53.3°C | 31.1% | 216.7hPa | 2.6V | 00:00:00 | 00:00:00 | 00:00:00 | |
| OM5KV | 2026-09-05 01:00:30 | 46.07780 | 20.66768 | 124° | 66km/h | 11907m | -27.1m/s | -53.7°C | 31.9% | 215.1hPa | 2.6V | 08:23:00 | 00:00:00 | 00:00:00 | |
| OM5KV | 2026-09-05 01:00:27 | 46.07808 | 20.66710 | 128° | 62km/h | 11989m | -27.9m/s | -54.4°C | 33.3% | 212.2hPa | 2.6V | 08:23:00 | 00:00:00 | 00:00:00 | |
| OM5KV | 2026-09-05 01:00:25 | 46.07835 | 20.66653 | 125° | 62km/h | 12071m | -28.0m/s | -55.1°C | 34.3% | 209.5hPa | 2.6V | 08:23:00 | 00:00:00 | 00:00:00 | |
| OM5KV | 2026-09-05 01:00:19 | 46.07881 | 20.66560 | 126° | 60km/h | 12210m | -29.4m/s | -56.4°C | 35.1% | 204.9hPa | 2.6V | 08:23:00 | 00:00:00 | 00:00:00 | |
| OM5KV | 2026-09-05 01:00:17 | 46.07909 | 20.66504 | 126° | 66km/h | 12296m | -28.4m/s | -57.1°C | 35.0% | 202.2hPa | 2.6V | 08:23:00 | 00:00:00 | 00:00:00 | |
| OM5KV | 2026-09-05 01:00:13 | 46.07936 | 20.66446 | 127° | 62km/h | 12380m | -28.9m/s | -57.9°C | 35.0% | 199.5hPa | 2.6V | 08:23:00 | 00:00:00 | 00:00:00 | |
| OM5KV | 2026-09-05 00:59:58 | 46.08078 | 20.66161 | 129° | 64km/h | 12799m | -29.2m/s | -61.2°C | 29.4% | 186.8hPa | 2.6V | 08:23:00 | 00:00:00 | 00:00:00 | |
| OM5KV | 2026-09-05 00:59:50 | 46.08168 | 20.66009 | 134° | 71km/h | 13026m | -28.6m/s | -62.7°C | 25.4% | 179.9hPa | 2.6V | 08:23:00 | 00:00:00 | 00:00:00 | |
| OM5KV | 2026-09-05 00:59:40 | 46.08280 | 20.65813 | 128° | 68km/h | 13316m | -30.1m/s | -64.6°C | 20.5% | 171.6hPa | 2.6V | 08:23:00 | 00:00:00 | 00:00:00 | |
| GYPAP8-17 | 2026-09-05 00:59:39 | 46.08291 | 20.65793 | 129° | 69km/h | 13345m | -29.0m/s | -64.7°C | 19.8% | 171.0hPa | 2.6V | 00:00:00 | 00:00:00 | 00:00:00 | |
| OM5KV | 2026-09-05 00:59:23 | 46.08440 | 20.65475 | 126° | 62km/h | 13819m | -30.9m/s | -66.5°C | 13.2% | 158.1hPa | 2.6V | 08:24:00 | 00:00:00 | 00:00:00 | |
| OM5KV | 2026-09-05 00:59:07 | 46.08566 | 20.65201 | 119° | 47km/h | 14315m | -31.9m/s | -63.7°C | 5.0% | 145.8hPa | 2.6V | 08:24:00 | 00:00:00 | 00:00:00 | |
| OM5KV | 2026-09-05 00:59:06 | 46.08571 | 20.65184 | 114° | 49km/h | 14347m | -31.7m/s | -63.2°C | 4.6% | 145.0hPa | 2.6V | 08:24:00 | 00:00:00 | 00:00:00 | |
| OM5KV | 2026-09-05 00:59:02 | 46.08588 | 20.65125 | 111° | 40km/h | 14474m | -32.6m/s | -61.8°C | 4.0% | 142.1hPa | 2.6V | 08:24:00 | 00:00:00 | 00:00:00 | |
| OM5KV | 2026-09-05 00:58:57 | 46.08599 | 20.65030 | 96° | 44km/h | 14669m | -33.5m/s | -60.3°C | 3.2% | 137.8hPa | 2.6V | 08:24:00 | 00:00:00 | 00:00:00 | |
| OM5KV | 2026-09-05 00:58:56 | 46.08601 | 20.65013 | 99° | 47km/h | 14702m | -32.4m/s | -60.3°C | 3.1% | 137.0hPa | 2.6V | 08:24:00 | 00:00:00 | 00:00:00 | |
| LZ4TU-5 | 2026-09-05 00:58:39 | 46.08651 | 20.64740 | 101° | 49km/h | 15234m | -35.1m/s | -60.1°C | 2.7% | 125.8hPa | 2.6V | 00:00:00 | 00:00:00 | 00:00:00 | |
| OM5KV | 2026-09-05 00:58:36 | 46.08660 | 20.64685 | 105° | 49km/h | 15335m | -33.9m/s | -60.6°C | 2.7% | 123.8hPa | 2.6V | 08:24:00 | 00:00:00 | 00:00:00 | |
| OM5KV | 2026-09-05 00:58:34 | 46.08667 | 20.64650 | 109° | 51km/h | 15402m | -33.0m/s | -60.9°C | 2.7% | 122.4hPa | 2.6V | 08:24:00 | 00:00:00 | 00:00:00 | |
| OM5KV | 2026-09-05 00:58:29 | 46.08696 | 20.64555 | 118° | 40km/h | 15600m | -34.1m/s | -60.1°C | 2.5% | 118.6hPa | 2.6V | 08:25:00 | 00:00:00 | 00:00:00 | |
| GYPAP8-17 | 2026-09-05 00:58:26 | 46.08707 | 20.64516 | 107° | 40km/h | 15701m | -33.5m/s | -59.5°C | 2.3% | 116.7hPa | 2.6V | 00:00:00 | 00:00:00 | 00:00:00 | |
| OM5KV | 2026-09-05 00:58:23 | 46.08711 | 20.64490 | 103° | 40km/h | 15769m | -33.4m/s | -59.9°C | 2.3% | 115.5hPa | 2.6V | 08:25:00 | 00:00:00 | 00:00:00 | |
| OM5KV | 2026-09-05 00:58:18 | 46.08715 | 20.64408 | 91° | 38km/h | 15977m | -34.6m/s | -59.0°C | 2.0% | 111.7hPa | 2.6V | 08:25:00 | 00:00:00 | 00:00:00 | |
| OM5KV | 2026-09-05 00:58:12 | 46.08711 | 20.64335 | 87° | 42km/h | 16151m | -35.1m/s | -59.1°C | 2.0% | 108.7hPa | 2.6V | 08:25:00 | 00:00:00 | 00:00:00 | |
| OM5KV | 2026-09-05 00:58:06 | 46.08710 | 20.64247 | 94° | 42km/h | 16359m | -35.2m/s | -59.3°C | 2.0% | 105.2hPa | 2.6V | 08:25:00 | 00:00:00 | 00:00:00 | |
| OM5KV | 2026-09-05 00:58:00 | 46.08707 | 20.64178 | 86° | 31km/h | 16574m | -36.4m/s | -59.4°C | 2.0% | 101.6hPa | 2.6V | 08:25:00 | 00:00:00 | 00:00:00 | |
| OM5KV | 2026-09-05 00:57:54 | 46.08710 | 20.64112 | 106° | 29km/h | 16793m | -36.6m/s | -59.8°C | 2.0% | 98.1hPa | 2.6V | 08:25:00 | 00:00:00 | 00:00:00 | |
| OM5KV | 2026-09-05 00:57:43 | 46.08728 | 20.63966 | 98° | 38km/h | 17207m | -38.9m/s | -58.7°C | 1.8% | 91.9hPa | 2.6V | 08:25:00 | 00:00:00 | 00:00:00 | |
| OM5KV | 2026-09-05 00:57:42 | 46.08729 | 20.63952 | 92° | 38km/h | 17246m | -38.9m/s | -58.0°C | 1.7% | 91.5hPa | 2.6V | 08:25:00 | 00:00:00 | 00:00:00 | |
| OM5KV | 2026-09-05 00:57:38 | 46.08728 | 20.63889 | 83° | 33km/h | 17446m | -40.3m/s | -57.3°C | 1.5% | 88.5hPa | 2.6V | 08:26:00 | 00:00:00 | 00:00:00 | |
| OM5KV | 2026-09-05 00:57:32 | 46.08726 | 20.63836 | 90° | 29km/h | 17647m | -40.4m/s | -58.3°C | 1.6% | 85.8hPa | 2.6V | 08:26:00 | 00:00:00 | 00:00:00 | |
| OM5KV | 2026-09-05 00:57:26 | 46.08729 | 20.63779 | 102° | 24km/h | 17894m | -41.3m/s | -56.5°C | 1.5% | 82.7hPa | 2.6V | 08:26:00 | 00:00:00 | 00:00:00 | |
| OM5KV | 2026-09-05 00:57:19 | 46.08730 | 20.63734 | 68° | 20km/h | 18180m | -41.5m/s | -56.3°C | 1.4% | 78.8hPa | 2.6V | 08:26:00 | 00:00:00 | 00:00:00 | |
| OM5KV | 2026-09-05 00:57:18 | 46.08728 | 20.63729 | 69° | 16km/h | 18221m | -41.8m/s | -56.5°C | 1.5% | 78.4hPa | 2.6V | 08:26:00 | 00:00:00 | 00:00:00 | |
| OM5KV | 2026-09-05 00:57:13 | 46.08718 | 20.63695 | 71° | 22km/h | 18432m | -41.8m/s | -57.7°C | 1.6% | 75.9hPa | 2.6V | 08:26:00 | 00:00:00 | 00:00:00 | |
| GYPAP8-17 | 2026-09-05 00:57:10 | 46.08710 | 20.63672 | 59° | 26km/h | 18561m | -43.6m/s | -57.3°C | 1.5% | 74.3hPa | 2.6V | 00:00:00 | 00:00:00 | 00:00:00 | |
| OM5KV | 2026-09-05 00:56:56 | 46.08715 | 20.63510 | 103° | 24km/h | 19179m | -45.2m/s | -55.7°C | 1.4% | 67.6hPa | 2.6V | 08:26:00 | 00:00:00 | 00:00:00 | |
| OM5KV | 2026-09-05 00:56:46 | 46.08714 | 20.63443 | 94° | 15km/h | 19669m | -44.7m/s | -55.6°C | 1.3% | 62.5hPa | 2.6V | 08:27:00 | 00:00:00 | 00:00:00 | |
| OM5KV | 2026-09-05 00:56:39 | 46.08717 | 20.63408 | 86° | 13km/h | 19939m | -47.2m/s | -55.1°C | 1.2% | 60.0hPa | 2.6V | 08:27:00 | 00:00:00 | 00:00:00 | |
| OM5KV | 2026-09-05 00:56:33 | 46.08712 | 20.63372 | 75° | 22km/h | 20226m | -46.8m/s | -56.5°C | 1.4% | 57.3hPa | 2.6V | 08:27:00 | 00:00:00 | 00:00:00 | |
| LZ4TU-5 | 2026-09-05 00:56:24 | 46.08713 | 20.63299 | 110° | 22km/h | 20648m | -48.2m/s | -56.0°C | 1.4% | 53.7hPa | 2.6V | 00:00:00 | 00:00:00 | 00:00:00 | |
| LZ4TU-5 | 2026-09-05 00:56:20 | 46.08719 | 20.63273 | 108° | 16km/h | 20840m | -48.8m/s | -55.6°C | 1.3% | 52.1hPa | 2.6V | 00:00:00 | 00:00:00 | 00:00:00 | |
| OM5KV | 2026-09-05 00:56:16 | 46.08721 | 20.63259 | 82° | 5km/h | 21037m | -49.5m/s | -55.0°C | 1.3% | 50.5hPa | 2.6V | 08:27:00 | 00:00:00 | 00:00:00 | |
| 9A1FER-10 | 2026-09-05 00:56:12 | 46.08722 | 20.63255 | 292° | 5km/h | 21286m | -51.3m/s | -54.7°C | 4.2% | 48.5hPa | 2.6V | 00:00:00 | 02:06:50 | 00:00:00 | |
| OM5KV | 2026-09-05 00:56:11 | 46.08722 | 20.63255 | 0° | 0km/h | 21286m | -51.4m/s | -54.7°C | 1.2% | 48.6hPa | 2.6V | 08:27:00 | 00:00:00 | 00:00:00 | |
| OM5KV | 2026-09-05 00:56:08 | 46.08722 | 20.63253 | 107° | 5km/h | 21438m | -50.3m/s | -54.7°C | 1.2% | 47.4hPa | 2.6V | 08:27:00 | 00:00:00 | 00:00:00 | |
| GYPAP8-17 | 2026-09-05 00:56:06 | 46.08721 | 20.63250 | 65° | 5km/h | 21539m | -51.1m/s | -54.8°C | 1.2% | 46.7hPa | 2.6V | 08:27:00 | 00:00:00 | 00:00:00 | |
| OM5KV | 2026-09-05 00:56:03 | 46.08720 | 20.63247 | 43° | 5km/h | 21692m | -51.4m/s | -54.1°C | 1.2% | 45.6hPa | 2.6V | 08:27:00 | 00:00:00 | 00:00:00 | |
| OM5KV | 2026-09-05 00:56:00 | 46.08717 | 20.63247 | 21° | 7km/h | 21848m | -52.5m/s | -54.1°C | 1.1% | 44.5hPa | 2.6V | 08:27:00 | 00:00:00 | 00:00:00 | |
| 9A1FER-10 | 2026-09-05 00:55:57 | 46.08711 | 20.63245 | 343° | 7km/h | 22058m | -52.7m/s | -54.4°C | 4.3% | 43.0hPa | 2.6V | 00:00:00 | 02:06:35 | 00:00:00 | |
| 9A1FER-3 | 2026-09-05 00:55:47 | 46.08694 | 20.63234 | 46° | 16km/h | 22602m | -56.3m/s | -54.9°C | 4.8% | 39.6hPa | 2.6V | 00:00:00 | 02:06:25 | 00:00:00 | |
| 9A1FER-10 | 2026-09-05 00:55:42 | 46.08693 | 20.63221 | 119° | 15km/h | 22887m | -58.4m/s | -53.1°C | 4.1% | 37.8hPa | 2.6V | 00:00:00 | 02:06:20 | 00:00:00 | |
| OM5KV | 2026-09-05 00:55:06 | 46.08664 | 20.63154 | 97° | 13km/h | 24914m | -58.5m/s | -49.9°C | 1.0% | 27.6hPa | 2.6V | 08:28:00 | 00:00:00 | 00:00:00 | |
| OM5KV | 2026-09-05 00:54:59 | 46.08666 | 20.63127 | 104° | 13km/h | 25329m | -63.7m/s | -48.8°C | 0.8% | 26.0hPa | 2.6V | 08:28:00 | 00:00:00 | 00:00:00 | |
| GYPAP8-17 | 2026-09-05 00:54:56 | 46.08667 | 20.63115 | 90° | 11km/h | 25519m | -63.4m/s | -49.1°C | 0.9% | 25.2hPa | 2.6V | 00:00:00 | 00:00:00 | 00:00:00 | |
| OM5KV | 2026-09-05 00:54:46 | 46.08660 | 20.63086 | 70° | 11km/h | 26134m | -65.1m/s | -48.0°C | 0.9% | 22.9hPa | 2.6V | 08:28:00 | 00:00:00 | 00:00:00 | |
| OM5KV | 2026-09-05 00:54:39 | 46.08660 | 20.63046 | 98° | 20km/h | 26583m | -63.8m/s | -48.1°C | 0.9% | 21.4hPa | 2.6V | 08:28:00 | 00:00:00 | 00:00:00 | |
| 9A1FER-3 | 2026-09-05 00:54:34 | 46.08666 | 20.63005 | 120° | 7km/h | 26956m | -64.7m/s | -47.1°C | 3.2% | 20.2hPa | 2.6V | 00:00:00 | 02:05:12 | 00:00:00 | |
| 9A1FER-10 | 2026-09-05 00:54:29 | 46.08677 | 20.62988 | 160° | 7km/h | 27289m | -67.4m/s | -45.6°C | 2.9% | 19.2hPa | 2.6V | 00:00:00 | 02:05:07 | 00:00:00 | |
| 9A1FER-3 | 2026-09-05 00:54:19 | 46.08678 | 20.62980 | 63° | 9km/h | 27961m | -68.8m/s | -45.8°C | 3.0% | 17.3hPa | 2.5V | 00:00:00 | 02:04:57 | 00:00:00 | |
| OM5KV | 2026-09-05 00:54:17 | 46.08678 | 20.62978 | 72° | 7km/h | 28028m | -68.1m/s | -45.8°C | 0.8% | 17.3hPa | 2.5V | 08:29:00 | 00:00:00 | 00:00:00 | |
| LZ4TU-5 | 2026-09-05 00:54:16 | 46.08677 | 20.62976 | 95° | 7km/h | 28096m | -68.2m/s | -45.9°C | 0.8% | 17.1hPa | 2.5V | 00:00:00 | 00:00:00 | 00:00:00 | |
| LZ4TU-5 | 2026-09-05 00:54:12 | 46.08677 | 20.62964 | 70° | 7km/h | 28368m | -68.1m/s | -44.9°C | 0.7% | 16.3hPa | 2.5V | 00:00:00 | 00:00:00 | 00:00:00 | |
| OM5KV | 2026-09-05 00:54:11 | 46.08676 | 20.62962 | 61° | 7km/h | 28437m | -68.7m/s | -44.6°C | 0.7% | 16.2hPa | 2.5V | 08:29:00 | 00:00:00 | 00:00:00 | |
| OM5KV | 2026-09-05 00:54:05 | 46.08669 | 20.62942 | 74° | 11km/h | 28859m | -69.5m/s | -44.6°C | 0.7% | 15.2hPa | 2.5V | 08:29:00 | 00:00:00 | 00:00:00 | |
| 9A1FER-3 | 2026-09-05 00:54:04 | 46.08668 | 20.62935 | 91° | 9km/h | 28999m | -70.2m/s | -44.3°C | 2.8% | 14.8hPa | 2.5V | 00:00:00 | 02:04:42 | 00:00:00 | |
| OM5KV | 2026-09-05 00:53:59 | 46.08667 | 20.62921 | 125° | 5km/h | 29283m | -72.6m/s | -44.8°C | 0.7% | 14.2hPa | 2.5V | 08:29:00 | 00:00:00 | 00:00:00 | |
| OM5KV | 2026-09-05 00:53:53 | 46.08662 | 20.62908 | 73° | 9km/h | 29712m | -70.8m/s | -45.0°C | 0.8% | 13.3hPa | 2.5V | 08:29:00 | 00:00:00 | 00:00:00 | |
| OM5KV | 2026-09-05 00:53:52 | 46.08661 | 20.62906 | 73° | 9km/h | 29784m | -70.5m/s | -44.6°C | 0.8% | 13.2hPa | 2.5V | 08:29:00 | 00:00:00 | 00:00:00 | |
| 9A1FER-10 | 2026-09-05 00:53:51 | 46.08661 | 20.62899 | 97° | 7km/h | 29924m | -69.7m/s | -44.5°C | 3.1% | 12.9hPa | 2.5V | 00:00:00 | 02:04:29 | 00:00:00 | |
| 9A1FER-3 | 2026-09-05 00:53:49 | 46.08662 | 20.62891 | 96° | 7km/h | 30062m | -70.8m/s | -43.9°C | 3.0% | 12.6hPa | 2.5V | 00:00:00 | 02:04:27 | 00:00:00 | |
| OM5KV | 2026-09-05 00:53:44 | 46.08663 | 20.62880 | 80° | 7km/h | 30344m | -71.7m/s | -43.3°C | 0.7% | 12.1hPa | 2.5V | 08:29:00 | 00:00:00 | 00:00:00 | |
| 9A1FER-10 | 2026-09-05 00:53:36 | 46.08659 | 20.62860 | 42° | 9km/h | 31002m | -74.3m/s | 0°C | 0% | 0hPa | 2.5V | 00:00:00 | 02:04:14 | 00:00:00 | |
| 9A1FER-3 | 2026-09-05 00:53:34 | 46.08658 | 20.62856 | 76° | 9km/h | 31150m | -74.5m/s | -40.4°C | 2.5% | 10.6hPa | 2.5V | 00:00:00 | 02:04:12 | 08:30:00 | |
| OM5KV | 2026-09-05 00:53:32 | 46.08657 | 20.62854 | 80° | 7km/h | 31224m | -76.3m/s | -40.3°C | 0.6% | 10.6hPa | 2.5V | 08:29:00 | 00:00:00 | 00:00:00 | |
| OM5KV | 2026-09-05 00:53:20 | 46.08669 | 20.62842 | 13° | 2km/h | 32178m | -80.9m/s | -37.1°C | 0.5% | 9.2hPa | 2.5V | 00:00:00 | 00:00:00 | 00:00:00 | |
| OM5KV | 2026-09-05 00:53:07 | 46.08660 | 20.62845 | 21° | 11km/h | 33181m | -77.8m/s | -38.4°C | 0.5% | 7.9hPa | 2.5V | 00:00:00 | 00:00:00 | 00:00:00 | |
| OM5KV | 2026-09-05 00:53:02 | 46.08653 | 20.62830 | 81° | 13km/h | 33555m | -78.3m/s | -38.6°C | 0.5% | 7.4hPa | 2.5V | 00:00:00 | 00:00:00 | 00:00:00 | |
| OM5KV | 2026-09-05 00:52:53 | 46.08592 | 20.62772 | 31° | 33km/h | 34215m | -34.9m/s | -39.1°C | 0.5% | 6.6hPa | 2.5V | 00:00:00 | 00:00:00 | 00:00:00 | |
| GYPAP8-17 | 2026-09-05 00:52:52 | 46.08592 | 20.62772 | 31° | 33km/h | 34215m | -34.9m/s | -39.1°C | 0.5% | 6.6hPa | 2.5V | 00:00:00 | 00:00:00 | 00:00:00 | |
| OM5KV | 2026-09-05 00:52:39 | 46.08584 | 20.62722 | 175° | 22km/h | 34244m | 6.6m/s | -39.6°C | 0.5% | 6.5hPa | 2.5V | 00:00:00 | 00:00:00 | 00:00:00 | |
| OM5KV | 2026-09-05 00:52:34 | 46.08600 | 20.62716 | 72° | 9km/h | 34211m | 6.9m/s | -39.9°C | 0.5% | 6.6hPa | 2.5V | 00:00:00 | 00:00:00 | 00:00:00 | |
| OM5KV | 2026-09-05 00:52:33 | 46.08599 | 20.62712 | 69° | 15km/h | 34204m | 7.1m/s | -39.9°C | 0.5% | 6.5hPa | 2.5V | 00:00:00 | 00:00:00 | 00:00:00 | |
| OM5KV | 2026-09-05 00:52:28 | 46.08595 | 20.62679 | 85° | 18km/h | 34170m | 7.8m/s | -40.0°C | 0.6% | 6.6hPa | 2.5V | 00:00:00 | 00:00:00 | 00:00:00 | |
| OM5KV | 2026-09-05 00:52:27 | 46.08595 | 20.62673 | 91° | 15km/h | 34163m | 6.6m/s | -40.0°C | 0.5% | 6.6hPa | 2.5V | 00:00:00 | 00:00:00 | 00:00:00 | |
| OM5KV | 2026-09-05 00:52:21 | 46.08615 | 20.62622 | 96° | 26km/h | 34118m | 8.3m/s | -40.1°C | 0.5% | 6.6hPa | 2.5V | 00:00:00 | 00:00:00 | 00:00:00 | |
| OM5KV | 2026-09-05 00:52:15 | 46.08599 | 20.62577 | 69° | 27km/h | 34081m | 6.9m/s | -39.9°C | 0.5% | 6.7hPa | 2.5V | 00:00:00 | 00:00:00 | 00:00:00 | |
| OM5KV | 2026-09-05 00:52:09 | 46.08599 | 20.62538 | 109° | 11km/h | 34040m | 6.2m/s | -39.8°C | 0.5% | 6.7hPa | 2.5V | 00:00:00 | 00:00:00 | 00:00:00 | |
| OM5KV | 2026-09-05 00:52:02 | 46.08603 | 20.62494 | 54° | 20km/h | 33991m | 8.0m/s | -39.7°C | 0% | 6.8hPa | 2.5V | 00:00:00 | 00:00:00 | 00:00:00 | |
| OM5KV | 2026-09-05 00:51:56 | 46.08586 | 20.62462 | 76° | 15km/h | 33948m | 7.1m/s | -39.8°C | 0% | 6.8hPa | 2.5V | 00:00:00 | 00:00:00 | 00:00:00 | |
| OM5KV | 2026-09-05 00:51:50 | 46.08583 | 20.62432 | 81° | 27km/h | 33905m | 6.9m/s | 0°C | 0% | 6.9hPa | 2.5V | 00:00:00 | 00:00:00 | 00:00:00 | |
| OM5KV | 2026-09-05 00:51:44 | 46.08556 | 20.62392 | 26° | 24km/h | 33863m | 7.5m/s | 0°C | 0% | 6.9hPa | 2.5V | 00:00:00 | 00:00:00 | 00:00:00 | |
| LZ4TU-5 | 2026-09-05 00:51:42 | 46.08547 | 20.62385 | 50° | 16km/h | 33847m | 6.9m/s | -40.0°C | 0.5% | 6.9hPa | 2.5V | 00:00:00 | 00:00:00 | 00:00:00 | |
| OM5KV | 2026-09-05 00:51:38 | 46.08539 | 20.62371 | 38° | 11km/h | 33819m | 6.9m/s | 0°C | 0% | 7.0hPa | 2.5V | 00:00:00 | 00:00:00 | 00:00:00 | |
| LZ4TU-5 | 2026-09-05 00:51:37 | 46.08537 | 20.62368 | 42° | 11km/h | 33813m | 6.1m/s | -40.5°C | 0.5% | 7.0hPa | 2.5V | 00:00:00 | 00:00:00 | 00:00:00 | |
| OM5KV | 2026-09-05 00:51:32 | 46.08529 | 20.62342 | 56° | 18km/h | 33778m | 6.1m/s | 0°C | 0% | 0hPa | 2.5V | 00:00:00 | 00:00:00 | 00:00:00 | |
| GYPAP8-17 | 2026-09-05 00:51:24 | 46.08492 | 20.62317 | 42° | 20km/h | 33717m | 7.4m/s | -40.8°C | 0.6% | 7.1hPa | 2.5V | 00:00:00 | 00:00:00 | 00:00:00 | |
| OM5KV | 2026-09-05 00:51:11 | 46.08433 | 20.62288 | 339° | 24km/h | 33630m | 5.5m/s | -40.8°C | 0.6% | 7.2hPa | 2.5V | 00:00:00 | 00:00:00 | 00:00:00 | |
| OM5KV | 2026-09-05 00:51:05 | 46.08407 | 20.62258 | 43° | 31km/h | 33589m | 6.1m/s | -40.8°C | 0.6% | 7.2hPa | 2.5V | 00:00:00 | 00:00:00 | 00:00:00 | |
| OM5KV | 2026-09-05 00:50:54 | 46.08354 | 20.62266 | 11° | 22km/h | 33514m | 7.6m/s | -40.5°C | 0.6% | 7.3hPa | 2.5V | 00:00:00 | 00:00:00 | 00:00:00 | |
| OM5KV | 2026-09-05 00:50:47 | 46.08327 | 20.62268 | 350° | 22km/h | 33466m | 6.7m/s | -40.4°C | 0.5% | 7.3hPa | 2.5V | 00:00:00 | 00:00:00 | 00:00:00 | |
| OM5KV | 2026-09-05 00:50:41 | 46.08314 | 20.62280 | 279° | 9km/h | 33424m | 6.0m/s | -40.4°C | 0.6% | 7.4hPa | 2.5V | 00:00:00 | 00:00:00 | 00:00:00 | |
| OM5KV | 2026-09-05 00:50:34 | 46.08297 | 20.62301 | 300° | 7km/h | 33375m | 6.3m/s | -40.4°C | 0.6% | 7.4hPa | 2.5V | 00:00:00 | 00:00:00 | 00:00:00 | |
| OM5KV | 2026-09-05 00:50:21 | 46.08300 | 20.62357 | 307° | 16km/h | 33286m | 5.8m/s | -40.6°C | 0.6% | 7.6hPa | 2.5V | 00:00:00 | 00:00:00 | 00:00:00 | |
| OM5KV | 2026-09-05 00:50:15 | 46.08303 | 20.62382 | 234° | 13km/h | 33245m | 7.6m/s | -40.6°C | 0.6% | 7.6hPa | 2.5V | 00:00:00 | 00:00:00 | 00:00:00 | |
| OM5KV | 2026-09-05 00:50:10 | 46.08311 | 20.62400 | 211° | 15km/h | 33211m | 8.0m/s | -40.5°C | 0.6% | 7.6hPa | 2.5V | 00:00:00 | 00:00:00 | 00:00:00 | |
| OM5KV | 2026-09-05 00:50:03 | 46.08313 | 20.62406 | 361° | 7km/h | 33166m | 6.2m/s | -40.6°C | 0.6% | 7.7hPa | 2.5V | 00:00:00 | 00:00:00 | 00:00:00 | |
| GYPAP8-17 | 2026-09-05 00:50:00 | 46.08315 | 20.62409 | 210° | 15km/h | 33145m | 6.2m/s | -40.5°C | 0.6% | 7.7hPa | 2.5V | 00:00:00 | 00:00:00 | 00:00:00 | |
| OM5KV | 2026-09-05 00:49:57 | 46.08323 | 20.62421 | 258° | 16km/h | 33125m | 8.2m/s | -40.4°C | 0.6% | 7.7hPa | 2.5V | 00:00:00 | 00:00:00 | 00:00:00 | |
| OM5KV | 2026-09-05 00:49:50 | 46.08316 | 20.62447 | 316° | 4km/h | 33077m | 6.0m/s | -40.2°C | 0.6% | 7.8hPa | 2.5V | 00:00:00 | 00:00:00 | 00:00:00 | |
| OM5KV | 2026-09-05 00:49:45 | 46.08310 | 20.62459 | 260° | 15km/h | 33042m | 8.8m/s | -40.0°C | 0.6% | 7.8hPa | 2.5V | 00:00:00 | 00:00:00 | 00:00:00 | |
| OM5KV | 2026-09-05 00:49:40 | 46.08313 | 20.62486 | 319° | 11km/h | 33007m | 7.3m/s | -39.8°C | 0.5% | 7.9hPa | 2.5V | 00:00:00 | 00:00:00 | 00:00:00 | |
| OM5KV | 2026-09-05 00:49:34 | 46.08299 | 20.62482 | 19° | 9km/h | 32966m | 7.1m/s | -39.7°C | 0.5% | 7.9hPa | 2.5V | 00:00:00 | 00:00:00 | 00:00:00 | |
| OM5KV | 2026-09-05 00:49:27 | 46.08290 | 20.62507 | 283° | 18km/h | 32917m | 5.8m/s | -39.6°C | 0.5% | 8.0hPa | 2.5V | 00:00:00 | 00:00:00 | 00:00:00 | |
| OM5KV | 2026-09-05 00:49:21 | 46.08266 | 20.62519 | 15° | 13km/h | 32875m | 7.0m/s | -39.4°C | 0.5% | 8.0hPa | 2.5V | 00:00:00 | 00:00:00 | 00:00:00 | |
| OM5KV | 2026-09-05 00:49:14 | 46.08251 | 20.62531 | 286° | 11km/h | 32828m | 8.0m/s | -39.3°C | 0.5% | 8.1hPa | 2.5V | 00:00:00 | 00:00:00 | 00:00:00 | |
| OM5KV | 2026-09-05 00:49:09 | 46.08251 | 20.62547 | 316° | 11km/h | 32793m | 7.0m/s | -39.3°C | 0.5% | 8.1hPa | 2.5V | 00:00:00 | 00:00:00 | 00:00:00 | |
| OM5KV | 2026-09-05 00:49:02 | 46.08248 | 20.62556 | 233° | 7km/h | 32748m | 7.7m/s | -39.4°C | 0.5% | 8.2hPa | 2.5V | 00:00:00 | 00:00:00 | 00:00:00 | |
| 9A1FER-3 | 2026-09-05 00:48:58 | 46.08255 | 20.62577 | 215° | 18km/h | 32713m | 7.8m/s | -39.5°C | 2.2% | 8.2hPa | 2.5V | 00:00:00 | 01:59:36 | 00:00:00 | |
| OM5KV | 2026-09-05 00:48:57 | 46.08255 | 20.62577 | 215° | 16km/h | 32713m | 7.9m/s | -39.6°C | 0.6% | 8.2hPa | 2.5V | 00:00:00 | 00:00:00 | 00:00:00 | |
| LZ4TU-5 | 2026-09-05 00:48:53 | 46.08269 | 20.62588 | 222° | 15km/h | 32684m | 6.6m/s | -39.5°C | 0.6% | 8.3hPa | 2.5V | 00:00:00 | 00:00:00 | 00:00:00 | |
| GYPAP8-17 | 2026-09-05 00:48:49 | 46.08286 | 20.62599 | 196° | 26km/h | 32656m | 5.9m/s | -39.5°C | 0.5% | 8.3hPa | 2.5V | 00:00:00 | 00:00:00 | 00:00:00 | |
| 9A1FER-3 | 2026-09-05 00:48:35 | 46.08328 | 20.62652 | 209° | 7km/h | 32558m | 8.1m/s | -39.4°C | 2.2% | 8.4hPa | 2.5V | 00:00:00 | 01:59:13 | 00:00:00 | |
| 9A1FER-3 | 2026-09-05 00:48:16 | 46.08332 | 20.62651 | 297° | 7km/h | 32427m | 6.7m/s | -39.4°C | 2.2% | 8.5hPa | 2.5V | 00:00:00 | 01:58:54 | 00:00:00 | |
| OM5KV | 2026-09-05 00:48:14 | 46.08331 | 20.62652 | 329° | 7km/h | 32420m | 8.3m/s | -39.4°C | 0.5% | 8.6hPa | 2.5V | 00:00:00 | 00:00:00 | 00:00:00 | |
| OM5KV | 2026-09-05 00:48:02 | 46.08297 | 20.62643 | 360° | 9km/h | 32333m | 7.9m/s | -39.6°C | 0.6% | 8.7hPa | 2.5V | 00:00:00 | 00:00:00 | 00:00:00 | |
| 9A1FER-3 | 2026-09-05 00:48:00 | 46.08288 | 20.62645 | 346° | 7km/h | 32312m | 8.5m/s | -39.6°C | 2.2% | 8.7hPa | 2.5V | 00:00:00 | 01:58:38 | 00:00:00 | |
| OM5KV | 2026-09-05 00:47:51 | 46.08279 | 20.62651 | 238° | 5km/h | 32257m | 7.6m/s | -39.6°C | 0.5% | 8.8hPa | 2.5V | 00:00:00 | 00:00:00 | 00:00:00 | |
| 9A1FER-10 | 2026-09-05 00:47:49 | 46.08278 | 20.62655 | 20° | 9km/h | 32237m | 6.9m/s | 0°C | 0% | 0hPa | 2.5V | 00:00:00 | 01:58:27 | 08:30:00 | |
| 9A1FER-3 | 2026-09-05 00:47:45 | 46.08277 | 20.62646 | 96° | 15km/h | 32208m | 7.5m/s | -39.8°C | 2.2% | 8.8hPa | 2.5V | 00:00:00 | 01:58:23 | 00:00:00 | |
| 9A1FER-10 | 2026-09-05 00:47:33 | 46.08319 | 20.62656 | 143° | 13km/h | 32119m | 8.0m/s | 0°C | 0% | 0hPa | 2.5V | 00:00:00 | 01:58:11 | 00:00:00 | |
| 9A1FER-3 | 2026-09-05 00:47:28 | 46.08332 | 20.62647 | 201° | 15km/h | 32085m | 6.9m/s | -40.1°C | 2.2% | 9.0hPa | 2.5V | 00:00:00 | 01:58:06 | 00:00:00 | |
| OM5KV | 2026-09-05 00:47:26 | 46.08335 | 20.62649 | 200° | 15km/h | 32078m | 6.7m/s | -40.1°C | 0.6% | 9.1hPa | 0V | 00:00:00 | 00:00:00 | 00:00:00 | |
| 9A1FER-10 | 2026-09-05 00:47:17 | 46.08356 | 20.62642 | 73° | 15km/h | 32007m | 6.0m/s | 0°C | 0% | 0hPa | 0V | 00:00:00 | 01:57:55 | 00:00:00 | |
| 9A1FER-3 | 2026-09-05 00:47:13 | 46.08353 | 20.62637 | 252° | 15km/h | 31980m | 5.8m/s | -40.3°C | 2.3% | 9.1hPa | 0V | 00:00:00 | 01:57:51 | 00:00:00 | |
| OM5KV | 2026-09-05 00:47:04 | 46.08381 | 20.62642 | 103° | 5km/h | 31924m | 6.1m/s | -40.2°C | 0.6% | 9.3hPa | 0V | 00:00:00 | 00:00:00 | 00:00:00 | |
| OM5KV | 2026-09-05 00:46:59 | 46.08375 | 20.62621 | 241° | 4km/h | 31885m | 8.1m/s | -40.2°C | 0.6% | 9.3hPa | 0V | 00:00:00 | 00:00:00 | 00:00:00 | |
| 9A1FER-3 | 2026-09-05 00:46:58 | 46.08376 | 20.62623 | 239° | 16km/h | 31877m | 6.6m/s | -40.2°C | 2.3% | 9.3hPa | 0V | 00:00:00 | 01:57:36 | 00:00:00 | |
| OM5KV | 2026-09-05 00:46:52 | 46.08397 | 20.62626 | 121° | 20km/h | 31838m | 5.6m/s | -40.2°C | 0.6% | 9.4hPa | 0V | 00:00:00 | 00:00:00 | 00:00:00 | |
| OM5KV | 2026-09-05 00:46:45 | 46.08406 | 20.62595 | 117° | 18km/h | 31796m | 8.2m/s | -40.1°C | 0.5% | 9.4hPa | 0V | 00:00:00 | 00:00:00 | 00:00:00 | |
| 9A1FER-3 | 2026-09-05 00:46:42 | 46.08417 | 20.62577 | 153° | 13km/h | 31766m | 7.2m/s | 0°C | 0% | 0hPa | 0V | 00:00:00 | 01:57:20 | 08:30:00 | |
| OM5KV | 2026-09-05 00:46:40 | 46.08419 | 20.62575 | 149° | 11km/h | 31760m | 5.4m/s | -40.2°C | 0.6% | 9.5hPa | 0V | 00:00:00 | 00:00:00 | 00:00:00 | |
| OM5KV | 2026-09-05 00:46:34 | 46.08425 | 20.62544 | 83° | 13km/h | 31718m | 7.1m/s | -40.2°C | 0.5% | 9.6hPa | 0V | 00:00:00 | 00:00:00 | 00:00:00 | |
| 9A1FER-3 | 2026-09-05 00:46:27 | 46.08425 | 20.62513 | 8° | 15km/h | 31665m | 5.8m/s | 0°C | 0% | 0hPa | 0V | 00:00:00 | 01:57:05 | 00:00:00 | |
| OM5KV | 2026-09-05 00:46:16 | 46.08417 | 20.62467 | 46° | 13km/h | 31603m | 5.8m/s | -40.8°C | 0.6% | 9.7hPa | 0V | 00:00:00 | 00:00:00 | 00:00:00 | |
| 9A1FER-10 | 2026-09-05 00:46:12 | 46.08413 | 20.62443 | 91° | 15km/h | 31572m | 6.8m/s | 0°C | 0% | 0hPa | 0V | 00:00:00 | 01:56:50 | 00:00:00 | |
| OM5KV | 2026-09-05 00:46:10 | 46.08413 | 20.62440 | 59° | 7km/h | 31565m | 6.4m/s | -40.9°C | 0.6% | 9.8hPa | 0V | 00:00:00 | 00:00:00 | 00:00:00 | |
| GYPAP8-17 | 2026-09-05 00:46:05 | 46.08394 | 20.62425 | 28° | 20km/h | 31535m | 4.5m/s | -41.1°C | 0.6% | 9.8hPa | 0V | 00:00:00 | 00:00:00 | 00:00:00 | |
| OM5KV | 2026-09-05 00:46:04 | 46.08390 | 20.62423 | 23° | 15km/h | 31529m | 6.7m/s | -41.1°C | 0.6% | 9.9hPa | 0V | 00:00:00 | 00:00:00 | 00:00:00 | |
| OM5KV | 2026-09-05 00:45:59 | 46.08388 | 20.62421 | 125° | 11km/h | 31495m | 8.0m/s | -41.3°C | 0.6% | 9.9hPa | 0V | 00:00:00 | 00:00:00 | 00:00:00 | |
| 9A1FER-3 | 2026-09-05 00:45:56 | 46.08386 | 20.62404 | 46° | 9km/h | 31471m | 7.6m/s | 0°C | 0% | 0hPa | 0V | 00:00:00 | 01:56:34 | 00:00:00 | |
| OM5KV | 2026-09-05 00:45:54 | 46.08384 | 20.62402 | 12° | 11km/h | 31463m | 7.9m/s | -41.5°C | 0.6% | 10.0hPa | 0V | 00:00:00 | 00:00:00 | 00:00:00 | |
| OM5KV | 2026-09-05 00:45:47 | 46.08370 | 20.62411 | 266° | 9km/h | 31415m | 7.1m/s | -41.9°C | 0.6% | 10.0hPa | 0V | 00:00:00 | 00:00:00 | 00:00:00 | |
| OM5KV | 2026-09-05 00:45:42 | 46.08372 | 20.62409 | 82° | 15km/h | 31383m | 6.4m/s | -42.1°C | 0.6% | 10.1hPa | 0V | 00:00:00 | 00:00:00 | 00:00:00 | |
| 9A1FER-3 | 2026-09-05 00:45:40 | 46.08368 | 20.62397 | 19° | 11km/h | 31361m | 6.6m/s | 0°C | 0% | 0hPa | 0V | 00:00:00 | 01:56:18 | 00:00:00 | |
| 9A1FER-10 | 2026-09-05 00:45:36 | 46.08367 | 20.62397 | 136° | 11km/h | 31336m | 7.1m/s | 0°C | 0% | 0hPa | 0V | 00:00:00 | 01:56:14 | 00:00:00 | |
| OM5KV | 2026-09-05 00:45:35 | 46.08367 | 20.62397 | 136° | 7km/h | 31336m | 7.2m/s | -42.4°C | 0.6% | 10.1hPa | 0V | 00:00:00 | 00:00:00 | 00:00:00 | |
| OM5KV | 2026-09-05 00:45:24 | 46.08389 | 20.62359 | 113° | 16km/h | 31265m | 7.2m/s | -42.4°C | 0.6% | 10.2hPa | 0V | 00:00:00 | 00:00:00 | 00:00:00 | |
| 9A1FER-10 | 2026-09-05 00:45:16 | 46.08406 | 20.62332 | 79° | 15km/h | 31205m | 5.1m/s | 0°C | 0% | 0hPa | 0V | 00:00:00 | 01:55:54 | 00:00:00 | |
| OM5KV | 2026-09-05 00:45:13 | 46.08403 | 20.62314 | 81° | 24km/h | 31184m | 6.4m/s | -42.5°C | 0.6% | 10.3hPa | 0V | 00:00:00 | 00:00:00 | 00:00:00 | |
| GYPAP8-17 | 2026-09-05 00:44:52 | 46.08371 | 20.62216 | 47° | 11km/h | 31050m | 7.1m/s | -43.3°C | 0.7% | 10.6hPa | 0V | 00:00:00 | 00:00:00 | 00:00:00 | |
| OM5KV | 2026-09-05 00:44:44 | 46.08329 | 20.62226 | 3° | 24km/h | 31000m | 7.0m/s | -43.4°C | 0.7% | 10.6hPa | 0V | 00:00:00 | 00:00:00 | 00:00:00 | |
| OM5KV | 2026-09-05 00:44:27 | 46.08258 | 20.62233 | 248° | 2km/h | 30889m | 7.7m/s | -43.4°C | 0.7% | 10.8hPa | 0V | 00:00:00 | 00:00:00 | 00:00:00 | |
| OM5KV | 2026-09-05 00:44:21 | 46.08258 | 20.62229 | 49° | 4km/h | 30847m | 5.1m/s | -43.2°C | 0.7% | 10.9hPa | 0V | 00:00:00 | 00:00:00 | 00:00:00 | |
| OM5KV | 2026-09-05 00:44:00 | 46.08254 | 20.62241 | 325° | 4km/h | 30706m | 6.6m/s | -44.0°C | 0.7% | 11.1hPa | 0V | 00:00:00 | 00:00:00 | 00:00:00 | |
| LZ4TU-5 | 2026-09-05 00:43:58 | 46.08256 | 20.62242 | 198° | 9km/h | 30692m | 7.7m/s | -44.1°C | 0.7% | 11.2hPa | 0V | 00:00:00 | 00:00:00 | 00:00:00 | |
| LZ4TU-5 | 2026-09-05 00:43:53 | 46.08286 | 20.62240 | 160° | 33km/h | 30656m | 7.5m/s | -44.2°C | 0.7% | 11.2hPa | 0V | 00:00:00 | 00:00:00 | 00:00:00 | |
| OM5KV | 2026-09-05 00:43:41 | 46.08327 | 20.62207 | 175° | 31km/h | 30574m | 5.8m/s | -44.6°C | 0.7% | 11.4hPa | 0V | 00:00:00 | 00:00:00 | 00:00:00 | |
| GYPAP8-17 | 2026-09-05 00:43:38 | 46.08354 | 20.62196 | 153° | 40km/h | 30555m | 6.8m/s | -44.8°C | 0.7% | 11.4hPa | 0V | 00:00:00 | 00:00:00 | 00:00:00 | |
| OM5KV | 2026-09-05 00:43:36 | 46.08368 | 20.62181 | 138° | 29km/h | 30544m | 5.3m/s | -44.8°C | 0.7% | 11.4hPa | 0V | 00:00:00 | 00:00:00 | 00:00:00 | |
| OM5KV | 2026-09-05 00:43:12 | 46.08395 | 20.62032 | 84° | 18km/h | 30381m | 5.8m/s | -45.0°C | 0.7% | 11.7hPa | 0V | 00:00:00 | 00:00:00 | 00:00:00 | |
| OM5KV | 2026-09-05 00:42:55 | 46.08374 | 20.61905 | 69° | 27km/h | 30262m | 7.0m/s | -44.7°C | 0.7% | 11.9hPa | 0V | 00:00:00 | 00:00:00 | 00:00:00 | |
| OM5KV | 2026-09-05 00:42:49 | 46.08375 | 20.61865 | 106° | 13km/h | 30223m | 6.3m/s | -44.6°C | 0.7% | 12.0hPa | 0V | 00:00:00 | 00:00:00 | 00:00:00 | |
| GYPAP8-17 | 2026-09-05 00:41:51 | 46.08277 | 20.61732 | 19° | 7km/h | 29823m | 5.2m/s | -45.6°C | 0.7% | 12.8hPa | 0V | 00:00:00 | 00:00:00 | 00:00:00 | |
| OM5KV | 2026-09-05 00:41:19 | 46.08218 | 20.61701 | 35° | 11km/h | 29606m | 7.1m/s | -46.3°C | 0.8% | 13.2hPa | 0V | 00:00:00 | 00:00:00 | 00:00:00 | |
| GYPAP8-17 | 2026-09-05 00:40:39 | 46.08208 | 20.61640 | 347° | 5km/h | 29337m | 5.6m/s | -46.3°C | 0.8% | 13.7hPa | 0V | 00:00:00 | 00:00:00 | 00:00:00 | |
| OM5KV | 2026-09-05 00:40:27 | 46.08221 | 20.61581 | 96° | 11km/h | 29256m | 7.8m/s | -45.9°C | 0.8% | 13.9hPa | 0V | 00:00:00 | 00:00:00 | 00:00:00 | |
| LZ4TU-5 | 2026-09-05 00:40:16 | 46.08214 | 20.61530 | 96° | 35km/h | 29180m | 7.9m/s | -45.9°C | 0.8% | 14.1hPa | 0V | 00:00:00 | 00:00:00 | 00:00:00 | |
| 9A1FER-3 | 2026-09-05 00:40:15 | 46.08217 | 20.61506 | 103° | 18km/h | 29166m | 5.9m/s | 0°C | 0% | 0hPa | 0V | 00:00:00 | 01:50:53 | 00:00:00 | |
| LZ4TU-5 | 2026-09-05 00:40:12 | 46.08219 | 20.61487 | 85° | 22km/h | 29153m | 8.1m/s | -45.9°C | 0.8% | 14.2hPa | 0V | 00:00:00 | 00:00:00 | 00:00:00 | |
| 9A1FER-3 | 2026-09-05 00:40:00 | 46.08200 | 20.61427 | 111° | 11km/h | 29061m | 4.3m/s | 0°C | 0% | 0hPa | 0V | 00:00:00 | 01:50:38 | 00:00:00 | |
| OM5KV | 2026-09-05 00:39:48 | 46.08201 | 20.61386 | 91° | 13km/h | 28988m | 5.1m/s | -45.6°C | 0.7% | 14.5hPa | 0V | 00:00:00 | 00:00:00 | 00:00:00 | |
| 9A1FER-3 | 2026-09-05 00:39:41 | 46.08214 | 20.61356 | 200° | 16km/h | 28932m | 7.7m/s | 0°C | 0% | 0hPa | 0V | 00:00:00 | 01:50:19 | 00:00:00 | |
| OM5KV | 2026-09-05 00:39:18 | 46.08197 | 20.61314 | 69° | 15km/h | 28787m | 6.4m/s | -45.6°C | 0.8% | 15.0hPa | 0V | 00:00:00 | 00:00:00 | 00:00:00 | |
| GYPAP8-17 | 2026-09-05 00:39:17 | 46.08195 | 20.61303 | 81° | 16km/h | 28772m | 6.2m/s | -45.5°C | 0.8% | 15.0hPa | 0V | 00:00:00 | 00:00:00 | 00:00:00 | |
| OM5KV | 2026-09-05 00:38:05 | 46.08079 | 20.61018 | 51° | 16km/h | 28291m | 5.8m/s | -46.4°C | 0.8% | 16.1hPa | 0V | 00:00:00 | 00:00:00 | 00:00:00 | |
| OM5KV | 2026-09-05 00:37:54 | 46.08076 | 20.61014 | 91° | 9km/h | 28217m | 7.8m/s | -46.6°C | 0.8% | 16.3hPa | 0V | 00:00:00 | 00:00:00 | 00:00:00 | |
| OM5KV | 2026-09-05 00:37:43 | 46.08077 | 20.61008 | 295° | 7km/h | 28145m | 6.8m/s | -47.0°C | 0.8% | 16.5hPa | 0V | 00:00:00 | 00:00:00 | 00:00:00 | |
| OM5KV | 2026-09-05 00:37:16 | 46.08070 | 20.60940 | 259° | 5km/h | 27967m | 7.1m/s | -47.0°C | 0.8% | 16.9hPa | 0V | 00:00:00 | 00:00:00 | 00:00:00 | |
| LZ4TU-5 | 2026-09-05 00:37:11 | 46.08060 | 20.60952 | 350° | 16km/h | 27935m | 4.4m/s | -47.2°C | 0.8% | 17.0hPa | 0V | 00:00:00 | 00:00:00 | 00:00:00 | |
| OM5KV | 2026-09-05 00:37:03 | 46.08061 | 20.60940 | 59° | 5km/h | 27886m | 5.3m/s | -47.0°C | 0.8% | 17.2hPa | 0V | 00:00:00 | 00:00:00 | 00:00:00 | |
| GYPAP8-17 | 2026-09-05 00:36:58 | 46.08059 | 20.60958 | 268° | 18km/h | 27855m | 5.7m/s | -46.9°C | 0.8% | 17.2hPa | 0V | 00:00:00 | 00:00:00 | 00:00:00 | |
| OM5KV | 2026-09-05 00:36:52 | 46.08064 | 20.60977 | 211° | 9km/h | 27818m | 5.4m/s | -46.9°C | 0.8% | 17.3hPa | 0V | 00:00:00 | 00:00:00 | 00:00:00 | |
| OM5KV | 2026-09-05 00:36:33 | 46.08095 | 20.61011 | 208° | 11km/h | 27697m | 7.1m/s | -46.7°C | 0.8% | 17.6hPa | 0V | 00:00:00 | 00:00:00 | 00:00:00 | |
| OM5KV | 2026-09-05 00:36:10 | 46.08134 | 20.61001 | 154° | 15km/h | 27550m | 7.4m/s | -47.1°C | 0.8% | 18.1hPa | 0V | 00:00:00 | 00:00:00 | 00:00:00 | |
| LZ4TU-5 | 2026-09-05 00:35:41 | 46.08217 | 20.60942 | 150° | 18km/h | 27362m | 7.7m/s | -47.5°C | 0.8% | 18.6hPa | 0V | 00:00:00 | 00:00:00 | 00:00:00 | |
| LZ4TU-5 | 2026-09-05 00:35:36 | 46.08236 | 20.60942 | 209° | 15km/h | 27328m | 5.3m/s | -47.7°C | 0.8% | 18.7hPa | 0V | 00:00:00 | 00:00:00 | 00:00:00 | |
| OM5KV | 2026-09-05 00:35:32 | 46.08253 | 20.60940 | 144° | 20km/h | 27302m | 6.3m/s | -47.9°C | 0.8% | 18.8hPa | 0V | 00:00:00 | 00:00:00 | 00:00:00 | |
| OM5KV | 2026-09-05 00:35:26 | 46.08270 | 20.60901 | 140° | 20km/h | 27263m | 5.7m/s | -48.1°C | 0.8% | 18.9hPa | 0V | 00:00:00 | 00:00:00 | 00:00:00 | |
| OM5KV | 2026-09-05 00:35:06 | 46.08346 | 20.60793 | 129° | 29km/h | 27133m | 5.2m/s | -49.1°C | 0.9% | 19.2hPa | 0V | 00:00:00 | 00:00:00 | 00:00:00 | |
| OM5KV | 2026-09-05 00:35:00 | 46.08368 | 20.60720 | 114° | 38km/h | 27092m | 5.1m/s | -49.3°C | 0.9% | 19.4hPa | 0V | 00:00:00 | 00:00:00 | 00:00:00 | |
| OM5KV | 2026-09-05 00:34:55 | 46.08376 | 20.60674 | 108° | 16km/h | 27058m | 8.0m/s | -49.3°C | 0.9% | 19.5hPa | 0V | 00:00:00 | 00:00:00 | 00:00:00 | |
| OM5KV | 2026-09-05 00:34:43 | 46.08384 | 20.60568 | 91° | 29km/h | 26979m | 6.1m/s | -49.2°C | 0.9% | 19.7hPa | 0V | 00:00:00 | 00:00:00 | 00:00:00 | |
| OM5KV | 2026-09-05 00:34:37 | 46.08388 | 20.60520 | 98° | 18km/h | 26940m | 6.4m/s | -49.3°C | 0.9% | 19.8hPa | 0V | 00:00:00 | 00:00:00 | 00:00:00 | |
| OM5KV | 2026-09-05 00:34:30 | 46.08398 | 20.60472 | 87° | 22km/h | 26895m | 6.7m/s | -49.7°C | 0.9% | 20.0hPa | 0V | 00:00:00 | 00:00:00 | 00:00:00 | |
| OM5KV | 2026-09-05 00:34:19 | 46.08395 | 20.60371 | 86° | 24km/h | 26825m | 7.5m/s | -49.7°C | 0.9% | 20.2hPa | 0V | 00:00:00 | 00:00:00 | 00:00:00 | |
| OM5KV | 2026-09-05 00:34:12 | 46.08388 | 20.60319 | 91° | 20km/h | 26781m | 5.6m/s | -49.8°C | 0% | 20.3hPa | 0V | 00:00:00 | 00:00:00 | 00:00:00 | |
| OM5KV | 2026-09-05 00:34:01 | 46.08348 | 20.60247 | 40° | 16km/h | 26709m | 7.2m/s | 0°C | 0% | 20.5hPa | 0V | 00:00:00 | 00:00:00 | 00:00:00 | |
| LZ4TU-5 | 2026-09-05 00:34:00 | 46.08345 | 20.60243 | 46° | 11km/h | 26702m | 5.9m/s | -50.6°C | 1.0% | 20.6hPa | 0V | 00:00:00 | 00:00:00 | 00:00:00 | |
| OM5KV | 2026-09-05 00:33:54 | 46.08334 | 20.60235 | 50° | 15km/h | 26665m | 7.2m/s | 0°C | 0% | 20.7hPa | 0V | 00:00:00 | 00:00:00 | 00:00:00 | |
| OM5KV | 2026-09-05 00:33:44 | 46.08324 | 20.60199 | 70° | 5km/h | 26597m | 6.5m/s | 0°C | 0% | 0hPa | 0V | 00:00:00 | 00:00:00 | 00:00:00 | |
| OM5KV | 2026-09-05 00:33:37 | 46.08316 | 20.60169 | 89° | 15km/h | 26559m | 7.3m/s | 0°C | 0% | 0hPa | 0V | 00:00:00 | 00:00:00 | 00:00:00 | |
| LZ4TU-5 | 2026-09-05 00:31:00 | 46.08186 | 20.59769 | 123° | 20km/h | 25551m | 6.9m/s | -50.1°C | 1.0% | 24.6hPa | 0V | 00:00:00 | 00:00:00 | 00:00:00 | |
| LZ4TU-5 | 2026-09-05 00:30:56 | 46.08189 | 20.59748 | 71° | 18km/h | 25527m | 6.1m/s | -50.1°C | 1.0% | 24.7hPa | 0V | 00:00:00 | 00:00:00 | 00:00:00 | |
| GYPAP8-17 | 2026-09-05 00:29:47 | 46.08159 | 20.59422 | 39° | 13km/h | 25106m | 5.4m/s | -49.8°C | 0.9% | 26.3hPa | 0V | 00:00:00 | 00:00:00 | 00:00:00 | |
| GYPAP8-17 | 2026-09-05 00:29:26 | 46.08148 | 20.59364 | 103° | 13km/h | 24980m | 7.3m/s | -50.2°C | 1.0% | 26.8hPa | 0V | 00:00:00 | 00:00:00 | 00:00:00 | |
| LZ4TU-5 | 2026-09-05 00:29:08 | 46.08132 | 20.59253 | 80° | 29km/h | 24869m | 5.8m/s | -51.1°C | 1.0% | 27.3hPa | 0V | 00:00:00 | 00:00:00 | 00:00:00 | |
| LZ4TU-5 | 2026-09-05 00:29:03 | 46.08124 | 20.59203 | 61° | 29km/h | 24839m | 7.1m/s | -51.1°C | 1.0% | 27.4hPa | 0V | 00:00:00 | 00:00:00 | 00:00:00 | |
| GYPAP8-17 | 2026-09-05 00:28:15 | 46.07973 | 20.58972 | 329° | 7km/h | 24549m | 6.4m/s | -52.6°C | 1.1% | 28.7hPa | 0V | 00:00:00 | 00:00:00 | 00:00:00 | |
| LZ4TU-5 | 2026-09-05 00:27:20 | 46.07966 | 20.58939 | 83° | 16km/h | 24220m | 5.9m/s | -53.0°C | 1.1% | 30.2hPa | 0V | 00:00:00 | 00:00:00 | 00:00:00 | |
| LZ4TU-5 | 2026-09-05 00:27:16 | 46.07964 | 20.58919 | 81° | 11km/h | 24196m | 6.7m/s | -53.0°C | 0% | 30.3hPa | 0V | 00:00:00 | 00:00:00 | 00:00:00 | |
| LZ4TU-5 | 2026-09-05 00:25:36 | 46.07798 | 20.58760 | 86° | 11km/h | 23602m | 5.1m/s | -53.1°C | 0% | 33.2hPa | 0V | 00:00:00 | 00:00:00 | 00:00:00 | |
| LZ4TU-5 | 2026-09-05 00:25:31 | 46.07783 | 20.58747 | 5° | 13km/h | 23573m | 5.8m/s | -53.2°C | 0% | 33.4hPa | 0V | 00:00:00 | 00:00:00 | 00:00:00 | |
| LZ4TU-5 | 2026-09-05 00:23:43 | 46.07919 | 20.58545 | 95° | 15km/h | 22953m | 5.2m/s | -54.9°C | 0% | 36.8hPa | 0V | 00:00:00 | 00:00:00 | 00:00:00 | |
| LZ4TU-5 | 2026-09-05 00:23:38 | 46.07920 | 20.58513 | 95° | 18km/h | 22923m | 6.0m/s | -54.9°C | 0% | 37.0hPa | 0V | 00:00:00 | 00:00:00 | 00:00:00 | |
| GYPAP8-17 | 2026-09-05 00:23:34 | 46.07917 | 20.58484 | 75° | 24km/h | 22901m | 4.3m/s | -54.8°C | 1.2% | 37.1hPa | 0V | 00:00:00 | 00:00:00 | 00:00:00 | |
| LZ4TU-5 | 2026-09-05 00:21:59 | 46.07653 | 20.58322 | 308° | 15km/h | 22343m | 7.3m/s | -54.9°C | 0% | 40.5hPa | 0V | 00:00:00 | 00:00:00 | 00:00:00 | |
| LZ4TU-5 | 2026-09-05 00:21:54 | 46.07647 | 20.58354 | 290° | 18km/h | 22313m | 4.9m/s | -54.9°C | 0% | 40.7hPa | 0V | 00:00:00 | 00:00:00 | 00:00:00 | |
| GYPAP8-17 | 2026-09-05 00:21:49 | 46.07636 | 20.58360 | 22° | 18km/h | 22282m | 6.3m/s | -54.8°C | 1.3% | 40.9hPa | 0V | 00:00:00 | 00:00:00 | 00:00:00 | |
| LZ4TU-5 | 2026-09-05 00:20:12 | 46.07595 | 20.58303 | 135° | 4km/h | 21727m | 6.8m/s | -54.4°C | 0% | 44.6hPa | 0V | 00:00:00 | 00:00:00 | 00:00:00 | |
| LZ4TU-5 | 2026-09-05 00:20:07 | 46.07599 | 20.58301 | 69° | 4km/h | 21698m | 5.7m/s | -54.4°C | 0% | 44.8hPa | 0V | 00:00:00 | 00:00:00 | 00:00:00 | |
| GYPAP8-17 | 2026-09-05 00:20:03 | 46.07593 | 20.58295 | 56° | 9km/h | 21676m | 5.4m/s | -54.6°C | 1.2% | 45.0hPa | 0V | 00:00:00 | 00:00:00 | 00:00:00 | |
| OM5KV | 2026-09-05 00:19:10 | 46.07637 | 20.58175 | 151° | 16km/h | 21393m | 5.8m/s | -55.3°C | 1.3% | 47.0hPa | 0V | 00:00:00 | 00:00:00 | 00:00:00 | |
| GYPAP8-17 | 2026-09-05 00:19:04 | 46.07656 | 20.58156 | 118° | 13km/h | 21360m | 5.1m/s | -55.1°C | 1.3% | 47.3hPa | 0V | 00:00:00 | 00:00:00 | 00:00:00 | |
| OM5KV | 2026-09-05 00:18:52 | 46.07668 | 20.58140 | 136° | 9km/h | 21296m | 5.3m/s | -55.0°C | 1.3% | 47.7hPa | 0V | 00:00:00 | 00:00:00 | 00:00:00 | |
| LZ4TU-5 | 2026-09-05 00:18:26 | 46.07707 | 20.58161 | 179° | 5km/h | 21158m | 6.0m/s | -55.3°C | 0% | 48.8hPa | 0V | 00:00:00 | 00:00:00 | 00:00:00 | |
| LZ4TU-5 | 2026-09-05 00:18:21 | 46.07712 | 20.58155 | 102° | 7km/h | 21131m | 4.4m/s | -55.5°C | 0% | 49.0hPa | 0V | 00:00:00 | 00:00:00 | 00:00:00 | |
| OM5KV | 2026-09-05 00:18:06 | 46.07724 | 20.58101 | 114° | 22km/h | 21049m | 6.5m/s | -56.0°C | 1.3% | 49.6hPa | 0V | 00:00:00 | 00:00:00 | 00:00:00 | |
| OM5KV | 2026-09-05 00:17:40 | 46.07734 | 20.57935 | 107° | 20km/h | 20907m | 5.7m/s | -56.4°C | 1.4% | 50.7hPa | 0V | 00:00:00 | 00:00:00 | 00:00:00 | |
| GYPAP8-17 | 2026-09-05 00:17:39 | 46.07735 | 20.57928 | 107° | 22km/h | 20901m | 5.6m/s | -56.4°C | 1.4% | 50.8hPa | 0V | 00:00:00 | 00:00:00 | 00:00:00 | |
| OM5KV | 2026-09-05 00:17:33 | 46.07740 | 20.57879 | 81° | 24km/h | 20867m | 6.1m/s | -56.3°C | 1.3% | 51.1hPa | 0V | 00:00:00 | 00:00:00 | 00:00:00 | |
| OM5KV | 2026-09-05 00:17:25 | 46.07748 | 20.57832 | 131° | 20km/h | 20825m | 6.1m/s | -56.4°C | 1.3% | 51.4hPa | 0V | 00:00:00 | 00:00:00 | 00:00:00 | |
| OM5KV | 2026-09-05 00:17:07 | 46.07809 | 20.57676 | 111° | 29km/h | 20726m | 6.3m/s | -56.8°C | 1.4% | 52.2hPa | 0V | 00:00:00 | 00:00:00 | 00:00:00 | |
| OM5KV | 2026-09-05 00:17:00 | 46.07815 | 20.57606 | 99° | 29km/h | 20687m | 4.6m/s | -57.2°C | 1.4% | 52.5hPa | 0V | 00:00:00 | 00:00:00 | 00:00:00 | |
| OM5KV | 2026-09-05 00:16:48 | 46.07818 | 20.57459 | 72° | 31km/h | 20619m | 6.0m/s | -56.9°C | 1.5% | 53.1hPa | 0V | 00:00:00 | 00:00:00 | 00:00:00 | |
| OM5KV | 2026-09-05 00:16:42 | 46.07807 | 20.57387 | 75° | 35km/h | 20586m | 5.8m/s | -56.6°C | 1.4% | 53.4hPa | 0V | 00:00:00 | 00:00:00 | 00:00:00 | |
| GYPAP8-17 | 2026-09-05 00:16:37 | 46.07797 | 20.57334 | 76° | 26km/h | 20558m | 6.8m/s | -56.4°C | 1.4% | 53.6hPa | 0V | 00:00:00 | 00:00:00 | 00:00:00 | |
| OM5KV | 2026-09-05 00:16:36 | 46.07795 | 20.57326 | 71° | 24km/h | 20551m | 5.5m/s | -56.4°C | 1.4% | 53.7hPa | 0V | 00:00:00 | 00:00:00 | 00:00:00 | |
| LZ4TU-5 | 2026-09-05 00:16:34 | 46.07792 | 20.57310 | 77° | 24km/h | 20540m | 6.2m/s | -56.4°C | 0% | 53.8hPa | 0V | 00:00:00 | 00:00:00 | 00:00:00 | |
| OM5KV | 2026-09-05 00:16:30 | 46.07784 | 20.57273 | 73° | 31km/h | 20518m | 5.0m/s | -56.3°C | 1.4% | 53.9hPa | 0V | 00:00:00 | 00:00:00 | 00:00:00 | |
| OM5KV | 2026-09-05 00:16:23 | 46.07773 | 20.57199 | 78° | 24km/h | 20479m | 4.9m/s | -56.2°C | 1.4% | 54.3hPa | 0V | 00:00:00 | 00:00:00 | 00:00:00 | |
| OM5KV | 2026-09-05 00:16:11 | 46.07743 | 20.57092 | 86° | 29km/h | 20416m | 4.2m/s | -55.8°C | 1.3% | 54.9hPa | 0V | 00:00:00 | 00:00:00 | 00:00:00 | |
| OM5KV | 2026-09-05 00:16:04 | 46.07733 | 20.57045 | 71° | 16km/h | 20376m | 6.9m/s | -55.7°C | 1.4% | 55.2hPa | 0V | 00:00:00 | 00:00:00 | 00:00:00 | |
| OM5KV | 2026-09-05 00:15:58 | 46.07729 | 20.57002 | 80° | 22km/h | 20342m | 5.8m/s | -55.7°C | 1.3% | 55.5hPa | 0V | 00:00:00 | 00:00:00 | 00:00:00 | |
| OM5KV | 2026-09-05 00:15:52 | 46.07723 | 20.56964 | 77° | 15km/h | 20307m | 5.0m/s | -55.9°C | 1.3% | 55.8hPa | 0V | 00:00:00 | 00:00:00 | 00:00:00 | |
| OM5KV | 2026-09-05 00:15:47 | 46.07723 | 20.56930 | 87° | 27km/h | 20280m | 5.1m/s | -56.8°C | 1.4% | 56.0hPa | 0V | 00:00:00 | 00:00:00 | 00:00:00 | |
| GYPAP8-17 | 2026-09-05 00:15:37 | 46.07704 | 20.56860 | 42° | 18km/h | 20226m | 4.7m/s | -57.0°C | 1.5% | 56.5hPa | 0V | 00:00:00 | 00:00:00 | 00:00:00 | |
| OM5KV | 2026-09-05 00:15:28 | 46.07680 | 20.56830 | 41° | 11km/h | 20176m | 4.8m/s | -56.7°C | 1.4% | 57.0hPa | 0V | 00:00:00 | 00:00:00 | 00:00:00 | |
| OM5KV | 2026-09-05 00:15:21 | 46.07670 | 20.56810 | 73° | 13km/h | 20135m | 5.9m/s | -56.4°C | 1.4% | 57.3hPa | 0V | 00:00:00 | 00:00:00 | 00:00:00 | |
| OM5KV | 2026-09-05 00:15:17 | 46.07662 | 20.56789 | 70° | 5km/h | 20102m | 5.6m/s | -56.4°C | 1.4% | 57.6hPa | 0V | 00:00:00 | 00:00:00 | 00:00:00 | |
| OM5KV | 2026-09-05 00:14:59 | 46.07668 | 20.56760 | 179° | 11km/h | 20017m | 5.5m/s | -55.8°C | 1.4% | 58.4hPa | 0V | 00:00:00 | 00:00:00 | 00:00:00 | |
| OM5KV | 2026-09-05 00:14:53 | 46.07680 | 20.56743 | 89° | 16km/h | 19985m | 6.2m/s | -55.6°C | 1.3% | 58.7hPa | 0V | 00:00:00 | 00:00:00 | 00:00:00 | |
| OM5KV | 2026-09-05 00:14:41 | 46.07690 | 20.56703 | 142° | 16km/h | 19924m | 6.0m/s | -55.4°C | 1.3% | 59.2hPa | 0V | 00:00:00 | 00:00:00 | 00:00:00 | |
| OM5KV | 2026-09-05 00:14:35 | 46.07695 | 20.56675 | 74° | 16km/h | 19893m | 5.4m/s | -55.3°C | 1.3% | 59.5hPa | 0V | 00:00:00 | 00:00:00 | 00:00:00 | |
| GYPAP8-17 | 2026-09-05 00:14:26 | 46.07699 | 20.56636 | 122° | 18km/h | 19844m | 5.7m/s | -55.3°C | 1.3% | 60.0hPa | 0V | 00:00:00 | 00:00:00 | 00:00:00 | |
| OM5KV | 2026-09-05 00:14:24 | 46.07704 | 20.56623 | 111° | 22km/h | 19834m | 4.0m/s | -55.4°C | 1.3% | 60.1hPa | 0V | 00:00:00 | 00:00:00 | 00:00:00 | |
| LZ4TU-5 | 2026-09-05 00:14:20 | 46.07707 | 20.56595 | 93° | 18km/h | 19814m | 5.5m/s | -55.4°C | 0% | 60.3hPa | 0V | 00:00:00 | 00:00:00 | 00:00:00 | |
| OM5KV | 2026-09-05 00:13:58 | 46.07749 | 20.56475 | 108° | 16km/h | 19699m | 4.2m/s | -55.8°C | 1.3% | 61.4hPa | 0V | 00:00:00 | 00:00:00 | 00:00:00 | |
| OM5KV | 2026-09-05 00:13:47 | 46.07751 | 20.56401 | 116° | 15km/h | 19643m | 4.3m/s | -55.9°C | 1.4% | 62.0hPa | 0V | 00:00:00 | 00:00:00 | 00:00:00 | |
| OM5KV | 2026-09-05 00:13:41 | 46.07764 | 20.56376 | 116° | 18km/h | 19612m | 4.5m/s | -55.9°C | 1.4% | 62.2hPa | 0V | 00:00:00 | 00:00:00 | 00:00:00 | |
| OM5KV | 2026-09-05 00:13:35 | 46.07767 | 20.56336 | 84° | 15km/h | 19581m | 5.8m/s | -55.8°C | 1.3% | 62.6hPa | 0V | 00:00:00 | 00:00:00 | 00:00:00 | |
| OM5KV | 2026-09-05 00:13:24 | 46.07773 | 20.56271 | 103° | 16km/h | 19524m | 4.8m/s | -55.8°C | 1.4% | 63.1hPa | 0V | 00:00:00 | 00:00:00 | 00:00:00 | |
| GYPAP8-17 | 2026-09-05 00:13:23 | 46.07774 | 20.56265 | 93° | 15km/h | 19519m | 4.4m/s | -55.8°C | 1.4% | 63.2hPa | 0V | 00:00:00 | 00:00:00 | 00:00:00 | |
| OM5KV | 2026-09-05 00:13:18 | 46.07768 | 20.56245 | 43° | 9km/h | 19493m | 4.1m/s | -56.0°C | 1.4% | 63.4hPa | 0V | 00:00:00 | 00:00:00 | 00:00:00 | |
| OM5KV | 2026-09-05 00:13:07 | 46.07769 | 20.56190 | 92° | 13km/h | 19436m | 4.4m/s | -55.9°C | 1.4% | 64.0hPa | 0V | 00:00:00 | 00:00:00 | 00:00:00 | |
| OM5KV | 2026-09-05 00:13:01 | 46.07759 | 20.56165 | 49° | 15km/h | 19404m | 5.5m/s | -55.7°C | 1.4% | 64.3hPa | 0V | 00:00:00 | 00:00:00 | 00:00:00 | |
| OM5KV | 2026-09-05 00:12:40 | 46.07718 | 20.56092 | 79° | 11km/h | 19294m | 5.6m/s | -55.6°C | 1.4% | 65.4hPa | 0V | 00:00:00 | 00:00:00 | 00:00:00 | |
| LZ4TU-5 | 2026-09-05 00:12:32 | 46.07712 | 20.56059 | 76° | 13km/h | 19251m | 4.1m/s | -55.6°C | 0% | 65.9hPa | 0V | 00:00:00 | 00:00:00 | 00:00:00 | |
| OM5KV | 2026-09-05 00:12:27 | 46.07712 | 20.56046 | 98° | 5km/h | 19222m | 5.1m/s | -55.6°C | 1.3% | 66.2hPa | 0V | 00:00:00 | 00:00:00 | 00:00:00 | |
| GYPAP8-17 | 2026-09-05 00:12:17 | 46.07734 | 20.55971 | 109° | 29km/h | 19167m | 6.3m/s | -55.6°C | 1.4% | 66.7hPa | 0V | 00:00:00 | 00:00:00 | 00:00:00 | |
| OM5KV | 2026-09-05 00:12:07 | 46.07769 | 20.55888 | 116° | 35km/h | 19112m | 5.0m/s | -55.8°C | 1.4% | 67.3hPa | 0V | 00:00:00 | 00:00:00 | 00:00:00 | |
| OM5KV | 2026-09-05 00:11:54 | 46.07823 | 20.55746 | 118° | 37km/h | 19048m | 5.5m/s | -56.2°C | 1.4% | 68.0hPa | 0V | 00:00:00 | 00:00:00 | 00:00:00 | |
| OM5KV | 2026-09-05 00:11:48 | 46.07836 | 20.55664 | 100° | 38km/h | 19016m | 4.5m/s | -56.3°C | 1.4% | 68.3hPa | 0V | 00:00:00 | 00:00:00 | 00:00:00 | |
| OM5KV | 2026-09-05 00:11:43 | 46.07842 | 20.55604 | 104° | 31km/h | 18988m | 5.2m/s | -56.7°C | 1.5% | 68.6hPa | 0V | 00:00:00 | 00:00:00 | 00:00:00 | |
| OM5KV | 2026-09-05 00:11:32 | 46.07840 | 20.55457 | 84° | 40km/h | 18930m | 5.1m/s | -56.6°C | 1.5% | 69.3hPa | 0V | 00:00:00 | 00:00:00 | 00:00:00 | |
| GYPAP8-17 | 2026-09-05 00:11:18 | 46.07816 | 20.55270 | 75° | 37km/h | 18854m | 4.7m/s | -56.5°C | 1.4% | 70.1hPa | 0V | 00:00:00 | 00:00:00 | 00:00:00 | |
| OM5KV | 2026-09-05 00:11:15 | 46.07806 | 20.55234 | 66° | 35km/h | 18838m | 4.8m/s | -56.6°C | 1.4% | 70.3hPa | 0V | 00:00:00 | 00:00:00 | 00:00:00 | |
| OM5KV | 2026-09-05 00:11:09 | 46.07790 | 20.55169 | 71° | 33km/h | 18807m | 5.1m/s | -57.0°C | 1.4% | 70.6hPa | 0V | 00:00:00 | 00:00:00 | 00:00:00 | |
| OM5KV | 2026-09-05 00:11:03 | 46.07770 | 20.55099 | 65° | 35km/h | 18774m | 6.2m/s | -57.9°C | 1.5% | 71.0hPa | 0V | 00:00:00 | 00:00:00 | 00:00:00 | |
| OM5KV | 2026-09-05 00:10:58 | 46.07747 | 20.55047 | 54° | 29km/h | 18748m | 5.7m/s | -58.1°C | 1.6% | 71.3hPa | 0V | 00:00:00 | 00:00:00 | 00:00:00 | |
| LZ4TU-5 | 2026-09-05 00:10:50 | 46.07705 | 20.54999 | 35° | 29km/h | 18707m | 5.9m/s | -58.1°C | 0% | 71.8hPa | 0V | 00:00:00 | 00:00:00 | 00:00:00 | |
| LZ4TU-5 | 2026-09-05 00:10:45 | 46.07676 | 20.54968 | 31° | 27km/h | 18681m | 5.9m/s | -58.0°C | 0% | 72.1hPa | 0V | 00:00:00 | 00:00:00 | 00:00:00 | |
| OM5KV | 2026-09-05 00:10:41 | 46.07654 | 20.54955 | 18° | 22km/h | 18660m | 4.8m/s | -58.2°C | 1.6% | 72.3hPa | 0V | 00:00:00 | 00:00:00 | 00:00:00 | |
| OM5KV | 2026-09-05 00:10:20 | 46.07582 | 20.54872 | 75° | 22km/h | 18551m | 4.4m/s | -59.1°C | 1.6% | 73.6hPa | 0V | 00:00:00 | 00:00:00 | 00:00:00 | |
| GYPAP8-17 | 2026-09-05 00:10:00 | 46.07557 | 20.54757 | 76° | 13km/h | 18448m | 5.0m/s | -58.4°C | 1.6% | 74.8hPa | 0V | 00:00:00 | 00:00:00 | 00:00:00 | |
| OM5KV | 2026-09-05 00:09:58 | 46.07555 | 20.54747 | 74° | 16km/h | 18438m | 4.5m/s | -58.3°C | 1.6% | 74.9hPa | 0V | 00:00:00 | 00:00:00 | 00:00:00 | |
| OM5KV | 2026-09-05 00:09:42 | 46.07522 | 20.54648 | 46° | 20km/h | 18354m | 6.1m/s | -57.9°C | 1.6% | 75.9hPa | 0V | 00:00:00 | 00:00:00 | 00:00:00 | |
| OM5KV | 2026-09-05 00:09:19 | 46.07475 | 20.54510 | 89° | 20km/h | 18233m | 4.7m/s | -57.3°C | 1.6% | 77.4hPa | 0V | 00:00:00 | 00:00:00 | 00:00:00 | |
| OM5KV | 2026-09-05 00:09:13 | 46.07469 | 20.54470 | 63° | 16km/h | 18201m | 5.4m/s | -57.1°C | 1.5% | 77.8hPa | 0V | 00:00:00 | 00:00:00 | 00:00:00 | |
| OM5KV | 2026-09-05 00:09:07 | 46.07463 | 20.54440 | 91° | 15km/h | 18171m | 5.8m/s | -57.0°C | 1.5% | 78.2hPa | 0V | 00:00:00 | 00:00:00 | 00:00:00 | |
| LZ4TU-5 | 2026-09-05 00:09:05 | 46.07464 | 20.54430 | 103° | 15km/h | 18162m | 5.8m/s | -56.9°C | 0% | 78.2hPa | 0V | 00:00:00 | 00:00:00 | 00:00:00 | |
| OM5KV | 2026-09-05 00:09:01 | 46.07467 | 20.54409 | 101° | 13km/h | 18140m | 4.2m/s | -56.9°C | 1.5% | 78.5hPa | 0V | 00:00:00 | 00:00:00 | 00:00:00 | |
| GYPAP8-17 | 2026-09-05 00:08:57 | 46.07471 | 20.54395 | 121° | 11km/h | 18120m | 6.3m/s | -56.8°C | 1.5% | 78.8hPa | 0V | 00:00:00 | 00:00:00 | 00:00:00 | |
| OM5KV | 2026-09-05 00:08:54 | 46.07475 | 20.54382 | 120° | 15km/h | 18105m | 6.1m/s | -56.7°C | 1.5% | 79.0hPa | 0V | 00:00:00 | 00:00:00 | 00:00:00 | |
| OM5KV | 2026-09-05 00:08:31 | 46.07529 | 20.54239 | 116° | 22km/h | 17986m | 5.0m/s | -56.9°C | 1.5% | 80.5hPa | 0V | 00:00:00 | 00:00:00 | 00:00:00 | |
| OM5KV | 2026-09-05 00:08:25 | 46.07543 | 20.54189 | 112° | 27km/h | 17955m | 5.8m/s | -57.1°C | 1.6% | 80.9hPa | 0V | 00:00:00 | 00:00:00 | 00:00:00 | |
| OM5KV | 2026-09-05 00:08:15 | 46.07590 | 20.53967 | 92° | 38km/h | 17852m | 6.0m/s | -57.7°C | 1.6% | 82.2hPa | 0V | 00:00:00 | 00:00:00 | 00:00:00 | |
| GYPAP8-17 | 2026-09-05 00:07:44 | 46.07565 | 20.53682 | 71° | 26km/h | 17745m | 5.7m/s | -58.9°C | 1.8% | 83.6hPa | 0V | 00:00:00 | 00:00:00 | 00:00:00 | |
| OM5KV | 2026-09-05 00:07:32 | 46.07549 | 20.53571 | 75° | 15km/h | 17682m | 5.9m/s | -58.9°C | 1.8% | 84.4hPa | 0V | 00:00:00 | 00:00:00 | 00:00:00 | |
| OM5KV | 2026-09-05 00:07:26 | 46.07544 | 20.53538 | 85° | 20km/h | 17650m | 5.0m/s | -58.6°C | 1.8% | 84.9hPa | 0V | 00:00:00 | 00:00:00 | 00:00:00 | |
| LZ4TU-5 | 2026-09-05 00:07:21 | 46.07538 | 20.53495 | 82° | 26km/h | 17625m | 5.3m/s | -58.4°C | 0% | 85.2hPa | 0V | 00:00:00 | 00:00:00 | 00:00:00 | |
| LZ4TU-5 | 2026-09-05 00:07:17 | 46.07533 | 20.53466 | 73° | 18km/h | 17606m | 4.4m/s | -58.3°C | 0% | 85.5hPa | 0V | 00:00:00 | 00:00:00 | 00:00:00 | |
| OM5KV | 2026-09-05 00:07:08 | 46.07525 | 20.53411 | 82° | 20km/h | 17558m | 6.3m/s | -58.0°C | 1.8% | 86.1hPa | 0V | 00:00:00 | 00:00:00 | 00:00:00 | |
| OM5KV | 2026-09-05 00:07:03 | 46.07523 | 20.53368 | 93° | 24km/h | 17533m | 5.7m/s | -57.8°C | 1.8% | 86.4hPa | 0V | 00:00:00 | 00:00:00 | 00:00:00 | |
| OM5KV | 2026-09-05 00:06:50 | 46.07515 | 20.53249 | 96° | 27km/h | 17467m | 5.1m/s | -57.7°C | 1.8% | 87.4hPa | 0V | 00:00:00 | 00:00:00 | 00:00:00 | |
| GYPAP8-17 | 2026-09-05 00:06:48 | 46.07517 | 20.53227 | 100° | 31km/h | 17456m | 4.2m/s | -57.6°C | 1.8% | 87.5hPa | 0V | 00:00:00 | 00:00:00 | 00:00:00 | |
| OM5KV | 2026-09-05 00:06:44 | 46.07523 | 20.53183 | 101° | 33km/h | 17435m | 5.0m/s | -57.5°C | 1.8% | 87.8hPa | 0V | 00:00:00 | 00:00:00 | 00:00:00 | |
| OM5KV | 2026-09-05 00:06:37 | 46.07523 | 20.53104 | 84° | 33km/h | 17400m | 5.9m/s | -57.2°C | 1.8% | 88.3hPa | 0V | 00:00:00 | 00:00:00 | 00:00:00 | |
| OM5KV | 2026-09-05 00:06:31 | 46.07525 | 20.53028 | 95° | 38km/h | 17370m | 5.1m/s | -57.0°C | 1.8% | 88.7hPa | 0V | 00:00:00 | 00:00:00 | 00:00:00 | |
| OM5KV | 2026-09-05 00:06:25 | 46.07530 | 20.52949 | 87° | 27km/h | 17339m | 4.0m/s | -57.0°C | 1.7% | 89.2hPa | 0V | 00:00:00 | 00:00:00 | 00:00:00 | |
| OM5KV | 2026-09-05 00:06:12 | 46.07528 | 20.52780 | 104° | 38km/h | 17273m | 5.0m/s | -57.9°C | 1.8% | 90.1hPa | 0V | 00:00:00 | 00:00:00 | 00:00:00 | |
| OM5KV | 2026-09-05 00:06:06 | 46.07542 | 20.52703 | 105° | 38km/h | 17242m | 5.3m/s | -58.0°C | 1.9% | 90.5hPa | 0V | 00:00:00 | 00:00:00 | 00:00:00 | |
| OM5KV | 2026-09-05 00:06:00 | 46.07556 | 20.52607 | 106° | 47km/h | 17212m | 5.8m/s | -58.6°C | 2.0% | 91.0hPa | 0V | 00:00:00 | 00:00:00 | 00:00:00 | |
| OM5KV | 2026-09-05 00:05:55 | 46.07571 | 20.52534 | 106° | 37km/h | 17186m | 5.8m/s | -59.2°C | 2.1% | 91.4hPa | 0V | 00:00:00 | 00:00:00 | 00:00:00 | |
| OM5KV | 2026-09-05 00:05:49 | 46.07577 | 20.52458 | 94° | 37km/h | 17157m | 4.1m/s | -59.6°C | 2.2% | 91.8hPa | 0V | 00:00:00 | 00:00:00 | 00:00:00 | |
| OM5KV | 2026-09-05 00:05:43 | 46.07590 | 20.52362 | 100° | 51km/h | 17127m | 4.5m/s | -59.8°C | 0% | 92.2hPa | 0V | 00:00:00 | 00:00:00 | 00:00:00 | |
| GYPAP8-17 | 2026-09-05 00:05:39 | 46.07596 | 20.52292 | 94° | 44km/h | 17107m | 4.4m/s | -60.0°C | 2.3% | 92.5hPa | 0V | 00:00:00 | 00:00:00 | 00:00:00 | |
| LZ4TU-5 | 2026-09-05 00:05:35 | 46.07598 | 20.52229 | 94° | 40km/h | 17086m | 5.5m/s | -60.0°C | 0% | 92.9hPa | 0V | 00:00:00 | 00:00:00 | 00:00:00 | |
| OM5KV | 2026-09-05 00:05:33 | 46.07600 | 20.52199 | 100° | 42km/h | 17076m | 6.2m/s | -59.9°C | 0% | 0hPa | 0V | 00:00:00 | 00:00:00 | 00:00:00 | |
| LZ4TU-5 | 2026-09-05 00:05:31 | 46.07604 | 20.52169 | 102° | 40km/h | 17066m | 5.3m/s | -59.9°C | 0% | 93.1hPa | 0V | 00:00:00 | 00:00:00 | 00:00:00 | |
| OM5KV | 2026-09-05 00:05:27 | 46.07610 | 20.52110 | 99° | 44km/h | 17047m | 4.5m/s | -60.0°C | 0% | 0hPa | 0V | 00:00:00 | 00:00:00 | 00:00:00 | |
| OM5KV | 2026-09-05 00:05:10 | 46.07654 | 20.51890 | 115° | 40km/h | 16963m | 5.9m/s | -60.8°C | 0% | 0hPa | 0V | 00:00:00 | 00:00:00 | 00:00:00 | |
| OM5KV | 2026-09-05 00:05:03 | 46.07684 | 20.51782 | 113° | 46km/h | 16929m | 4.3m/s | 0°C | 0% | 0hPa | 0V | 00:00:00 | 00:00:00 | 00:00:00 | |
| OM5KV | 2026-09-05 00:04:58 | 46.07704 | 20.51715 | 114° | 35km/h | 16904m | 4.7m/s | 0°C | 0% | 0hPa | 0V | 00:00:00 | 00:00:00 | 00:00:00 | |
| GYPAP8-17 | 2026-09-05 00:04:42 | 46.07745 | 20.51503 | 103° | 37km/h | 16824m | 5.9m/s | -60.6°C | 2.4% | 96.8hPa | 0V | 00:00:00 | 00:00:00 | 00:00:00 | |
| LZ4TU-5 | 2026-09-05 00:03:49 | 46.07752 | 20.50809 | 76° | 37km/h | 16556m | 5.7m/s | -60.1°C | 0% | 101.1hPa | 0V | 00:00:00 | 00:00:00 | 00:00:00 | |
| LZ4TU-5 | 2026-09-05 00:03:46 | 46.07741 | 20.50765 | 75° | 27km/h | 16536m | 4.4m/s | -59.9°C | 0% | 101.4hPa | 0V | 00:00:00 | 00:00:00 | 00:00:00 | |
| OM5KV | 2026-09-05 00:03:42 | 46.07737 | 20.50722 | 92° | 33km/h | 16515m | 5.8m/s | -59.9°C | 2.4% | 101.7hPa | 0V | 00:00:00 | 00:00:00 | 00:00:00 | |
| OM5KV | 2026-09-05 00:03:35 | 46.07734 | 20.50652 | 80° | 26km/h | 16483m | 4.5m/s | -59.9°C | 2.4% | 102.3hPa | 0V | 00:00:00 | 00:00:00 | 00:00:00 | |
| OM5KV | 2026-09-05 00:03:31 | 46.07729 | 20.50605 | 92° | 29km/h | 16459m | 5.1m/s | -60.0°C | 2.4% | 102.6hPa | 0V | 00:00:00 | 00:00:00 | 00:00:00 | |
| OM5KV | 2026-09-05 00:03:29 | 46.07730 | 20.50595 | 93° | 31km/h | 16453m | 5.3m/s | -60.0°C | 2.4% | 102.7hPa | 0V | 00:00:00 | 00:00:00 | 00:00:00 | |
| OM5KV | 2026-09-05 00:03:19 | 46.07732 | 20.50472 | 93° | 35km/h | 16403m | 4.2m/s | -59.9°C | 2.5% | 103.5hPa | 0V | 00:00:00 | 00:00:00 | 00:00:00 | |
| OM5KV | 2026-09-05 00:03:18 | 46.07732 | 20.50459 | 89° | 37km/h | 16398m | 5.7m/s | -59.9°C | 2.5% | 103.6hPa | 0V | 00:00:00 | 00:00:00 | 00:00:00 | |
| OM5KV | 2026-09-05 00:03:13 | 46.07727 | 20.50396 | 78° | 35km/h | 16374m | 5.3m/s | -59.7°C | 2.5% | 104.0hPa | 0V | 00:00:00 | 00:00:00 | 00:00:00 | |
| OM5KV | 2026-09-05 00:03:07 | 46.07719 | 20.50311 | 85° | 42km/h | 16347m | 5.2m/s | -59.8°C | 2.5% | 104.5hPa | 0V | 00:00:00 | 00:00:00 | 00:00:00 | |
| GYPAP8-17 | 2026-09-05 00:02:50 | 46.07673 | 20.50018 | 79° | 35km/h | 16243m | 4.6m/s | -60.2°C | 2.7% | 106.3hPa | 0V | 00:00:00 | 00:00:00 | 00:00:00 | |
| OM5KV | 2026-09-05 00:02:41 | 46.07660 | 20.49937 | 79° | 35km/h | 16209m | 3.9m/s | -60.6°C | 2.8% | 106.8hPa | 0V | 00:00:00 | 00:00:00 | 00:00:00 | |
| OM5KV | 2026-09-05 00:02:40 | 46.07659 | 20.49924 | 81° | 35km/h | 16204m | 5.3m/s | -60.6°C | 2.8% | 106.9hPa | 0V | 00:00:00 | 00:00:00 | 00:00:00 | |
| OM5KV | 2026-09-05 00:02:31 | 46.07655 | 20.49838 | 89° | 40km/h | 16175m | 4.6m/s | -60.6°C | 2.8% | 107.4hPa | 0V | 00:00:00 | 00:00:00 | 00:00:00 | |
| OM5KV | 2026-09-05 00:02:27 | 46.07647 | 20.49768 | 76° | 38km/h | 16149m | 3.7m/s | -60.5°C | 2.8% | 107.9hPa | 0V | 00:00:00 | 00:00:00 | 00:00:00 | |
| OM5KV | 2026-09-05 00:02:26 | 46.07644 | 20.49754 | 74° | 40km/h | 16144m | 5.8m/s | -60.5°C | 2.8% | 108.0hPa | 0V | 00:00:00 | 00:00:00 | 00:00:00 | |
| GYPAP8-17 | 2026-09-05 00:02:25 | 46.07644 | 20.49754 | 74° | 40km/h | 16144m | 5.8m/s | -60.5°C | 2.8% | 108.0hPa | 0V | 00:00:00 | 00:00:00 | 00:00:00 | |
| OM5KV | 2026-09-05 00:02:12 | 46.07621 | 20.49543 | 73° | 31km/h | 16057m | 5.7m/s | -60.1°C | 2.8% | 109.4hPa | 0V | 00:00:00 | 00:00:00 | 00:00:00 | |
| GYPAP8-17 | 2026-09-05 00:02:09 | 46.07613 | 20.49510 | 72° | 35km/h | 16043m | 5.7m/s | -60.2°C | 2.9% | 109.7hPa | 0V | 00:00:00 | 00:00:00 | 00:00:00 | |
| OM5KV | 2026-09-05 00:01:57 | 46.07616 | 20.49385 | 95° | 27km/h | 15982m | 5.9m/s | -60.1°C | 2.9% | 110.8hPa | 0V | 00:00:00 | 00:00:00 | 00:00:00 | |
| LZ4TU-5 | 2026-09-05 00:01:56 | 46.07617 | 20.49364 | 95° | 31km/h | 15973m | 4.9m/s | -60.0°C | 0% | 110.9hPa | 0V | 00:00:00 | 00:00:00 | 00:00:00 | |
| OM5KV | 2026-09-05 00:01:50 | 46.07621 | 20.49316 | 105° | 31km/h | 15952m | 4.4m/s | -59.9°C | 2.9% | 111.3hPa | 0V | 00:00:00 | 00:00:00 | 00:00:00 | |
| OM5KV | 2026-09-05 00:01:48 | 46.07626 | 20.49294 | 111° | 31km/h | 15942m | 6.1m/s | -59.9°C | 2.9% | 111.5hPa | 0V | 00:00:00 | 00:00:00 | 00:00:00 | |
| OM5KV | 2026-09-05 00:01:40 | 46.07645 | 20.49200 | 98° | 38km/h | 15894m | 5.8m/s | -60.4°C | 3.0% | 112.4hPa | 0V | 00:00:00 | 00:00:00 | 00:00:00 | |
| OM5KV | 2026-09-05 00:01:37 | 46.07656 | 20.49143 | 118° | 42km/h | 15874m | 5.1m/s | -60.5°C | 3.0% | 112.7hPa | 0V | 00:00:00 | 00:00:00 | 00:00:00 | |
| OM5KV | 2026-09-05 00:01:30 | 46.07681 | 20.49071 | 117° | 33km/h | 15844m | 5.4m/s | -60.5°C | 0% | 0hPa | 0V | 00:00:00 | 00:00:00 | 00:00:00 | |
| OM5KV | 2026-09-05 00:01:28 | 46.07685 | 20.49060 | 117° | 35km/h | 15839m | 3.8m/s | -60.4°C | 0% | 0hPa | 0V | 00:00:00 | 00:00:00 | 00:00:00 | |
| OM5KV | 2026-09-05 00:01:17 | 46.07725 | 20.48944 | 119° | 37km/h | 15789m | 6.5m/s | -60.2°C | 0% | 0hPa | 0V | 00:00:00 | 00:00:00 | 00:00:00 | |
| GYPAP8-17 | 2026-09-05 00:01:14 | 46.07747 | 20.48886 | 119° | 38km/h | 15763m | 6.2m/s | -60.4°C | 3.1% | 114.7hPa | 0V | 00:00:00 | 00:00:00 | 00:00:00 | |
| OM5KV | 2026-09-05 00:01:12 | 46.07752 | 20.48874 | 119° | 40km/h | 15758m | 3.5m/s | -60.4°C | 0% | 0hPa | 0V | 00:00:00 | 00:00:00 | 00:00:00 | |
| OM5KV | 2026-09-05 00:01:11 | 46.07756 | 20.48861 | 119° | 38km/h | 15754m | 5.7m/s | -60.4°C | 0% | 0hPa | 0V | 00:00:00 | 00:00:00 | 00:00:00 | |
| OM5KV | 2026-09-05 00:01:07 | 46.07776 | 20.48812 | 125° | 42km/h | 15733m | 4.7m/s | -60.4°C | 0% | 0hPa | 0V | 00:00:00 | 00:00:00 | 00:00:00 | |
| OM5KV | 2026-09-05 00:00:59 | 46.07816 | 20.48734 | 126° | 46km/h | 15703m | 4.7m/s | -60.4°C | 0% | 0hPa | 0V | 00:00:00 | 00:00:00 | 00:00:00 | |
| OM5KV | 2026-09-05 00:00:58 | 46.07822 | 20.48721 | 125° | 44km/h | 15698m | 5.2m/s | -60.3°C | 0% | 0hPa | 0V | 00:00:00 | 00:00:00 | 00:00:00 | |
| OM5KV | 2026-09-05 00:00:51 | 46.07852 | 20.48640 | 119° | 38km/h | 15669m | 4.1m/s | 0°C | 0% | 0hPa | 0V | 00:00:00 | 00:00:00 | 00:00:00 | |
| GYPAP8-17 | 2026-09-05 00:00:17 | 46.08069 | 20.48053 | 119° | 53km/h | 15481m | 4.4m/s | -61.1°C | 3.6% | 120.1hPa | 0V | 00:00:00 | 00:00:00 | 00:00:00 | |
| LZ4TU-5 | 2026-09-05 00:00:06 | 46.08105 | 20.47899 | 105° | 49km/h | 15438m | 4.7m/s | -61.0°C | 0% | 120.9hPa | 0V | 00:00:00 | 00:00:00 | 00:00:00 | |
| LZ4TU-5 | 2026-09-05 00:00:00 | 46.08128 | 20.47808 | 113° | 57km/h | 15413m | 6.1m/s | -61.1°C | 0% | 121.4hPa | 0V | 00:00:00 | 00:00:00 | 00:00:00 | |
| GYPAP8-17 | 2026-09-04 23:59:15 | 46.08253 | 20.47076 | 111° | 44km/h | 15191m | 4.4m/s | -60.5°C | 4.0% | 125.8hPa | 0V | 00:00:00 | 00:00:00 | 00:00:00 | |
| LZ4TU-5 | 2026-09-04 23:58:19 | 46.08512 | 20.46256 | 109° | 46km/h | 14918m | 5.9m/s | -61.2°C | 0% | 131.4hPa | 0V | 00:00:00 | 00:00:00 | 00:00:00 | |
| LZ4TU-5 | 2026-09-04 23:58:15 | 46.08529 | 20.46190 | 104° | 46km/h | 14882m | 6.6m/s | -61.4°C | 0% | 132.1hPa | 0V | 00:00:00 | 00:00:00 | 00:00:00 | |
| GYPAP8-17 | 2026-09-04 23:58:10 | 46.08537 | 20.46125 | 105° | 40km/h | 14851m | 8.3m/s | -61.1°C | 6.2% | 132.8hPa | 0V | 00:00:00 | 00:00:00 | 00:00:00 | |
| GYPAP8-17 | 2026-09-04 23:57:15 | 46.08557 | 20.45517 | 119° | 37km/h | 14496m | 3.7m/s | -60.7°C | 15.4% | 140.7hPa | 0V | 00:00:00 | 00:00:00 | 00:00:00 | |
| LZ4TU-5 | 2026-09-04 23:56:39 | 46.08860 | 20.45010 | 120° | 64km/h | 14248m | 10.4m/s | -64.8°C | 0% | 146.4hPa | 0V | 00:00:00 | 00:00:00 | 00:00:00 | |
| LZ4TU-5 | 2026-09-04 23:56:34 | 46.08898 | 20.44922 | 126° | 55km/h | 14213m | 9.3m/s | 0°C | 0% | 147.3hPa | 0V | 00:00:00 | 00:00:00 | 00:00:00 | |
| GYPAP8-17 | 2026-09-04 23:56:18 | 46.09058 | 20.44632 | 134° | 66km/h | 14102m | 10.2m/s | -65.4°C | 39.5% | 149.9hPa | 0V | 00:00:00 | 00:00:00 | 00:00:00 | |
| LZ4TU-5 | 2026-09-04 23:54:53 | 46.10145 | 20.42985 | 127° | 77km/h | 13485m | 4.8m/s | 0°C | 0% | 166.3hPa | 0V | 00:00:00 | 00:00:00 | 00:00:00 | |
| LZ4TU-5 | 2026-09-04 23:54:49 | 46.10188 | 20.42895 | 128° | 73km/h | 13450m | 10.2m/s | 0°C | 0% | 167.2hPa | 0V | 00:00:00 | 00:00:00 | 00:00:00 | |
| GYPAP8-17 | 2026-09-04 23:54:36 | 46.10363 | 20.42619 | 132° | 77km/h | 13347m | 6.3m/s | -65.2°C | 55.9% | 169.9hPa | 0V | 00:00:00 | 00:00:00 | 00:00:00 | |
| GYPAP8-17 | 2026-09-04 23:53:46 | 46.11049 | 20.41647 | 138° | 78km/h | 13015m | 5.1m/s | -62.9°C | 50.6% | 179.4hPa | 0V | 00:00:00 | 00:00:00 | 00:00:00 | |
| GYPAP8-17 | 2026-09-04 23:53:26 | 46.11330 | 20.41264 | 132° | 77km/h | 12911m | 6.6m/s | -62.2°C | 47.9% | 182.5hPa | 0V | 00:00:00 | 00:00:00 | 00:00:00 | |
| LZ4TU-5 | 2026-09-04 23:53:08 | 46.11582 | 20.40908 | 138° | 75km/h | 12820m | 4.7m/s | 0°C | 0% | 185.2hPa | 0V | 00:00:00 | 00:00:00 | 00:00:00 | |
| LZ4TU-5 | 2026-09-04 23:53:04 | 46.11639 | 20.40836 | 139° | 75km/h | 12800m | 6.1m/s | 0°C | 0% | 185.8hPa | 0V | 00:00:00 | 00:00:00 | 00:00:00 | |
| GYPAP8-17 | 2026-09-04 23:51:45 | 46.12579 | 20.39405 | 130° | 64km/h | 12391m | 4.3m/s | -58.1°C | 39.4% | 198.4hPa | 0V | 00:00:00 | 00:00:00 | 00:00:00 | |
| LZ4TU-5 | 2026-09-04 23:51:23 | 46.12806 | 20.38971 | 132° | 68km/h | 12277m | 4.1m/s | 0°C | 0% | 202.0hPa | 0V | 00:00:00 | 00:00:00 | 00:00:00 | |
| LZ4TU-5 | 2026-09-04 23:51:18 | 46.12858 | 20.38876 | 128° | 68km/h | 12252m | 4.4m/s | 0°C | 0% | 202.8hPa | 0V | 00:00:00 | 00:00:00 | 00:00:00 | |
| LZ4TU-5 | 2026-09-04 23:49:38 | 46.13880 | 20.36823 | 125° | 73km/h | 11748m | 4.4m/s | 0°C | 0% | 219.4hPa | 0V | 00:00:00 | 00:00:00 | 00:00:00 | |
| LZ4TU-5 | 2026-09-04 23:49:33 | 46.13933 | 20.36708 | 124° | 75km/h | 11723m | 4.0m/s | 0°C | 0% | 220.2hPa | 0V | 00:00:00 | 00:00:00 | 00:00:00 | |
| GYPAP8-17 | 2026-09-04 23:49:12 | 46.14146 | 20.36239 | 123° | 71km/h | 11615m | 5.8m/s | -51.8°C | 27.2% | 223.9hPa | 0V | 00:00:00 | 00:00:00 | 00:00:00 | |
| GYPAP8-17 | 2026-09-04 23:48:17 | 46.14689 | 20.35034 | 126° | 71km/h | 11330m | 6.5m/s | -49.4°C | 24.9% | 233.8hPa | 0V | 00:00:00 | 00:00:00 | 00:00:00 | |
| LZ4TU-5 | 2026-09-04 23:47:52 | 46.14937 | 20.34493 | 122° | 75km/h | 11157m | 6.2m/s | 0°C | 0% | 240.1hPa | 0V | 00:00:00 | 00:00:00 | 00:00:00 | |
| LZ4TU-5 | 2026-09-04 23:47:47 | 46.14995 | 20.34388 | 129° | 71km/h | 11126m | 4.8m/s | 0°C | 0% | 0hPa | 0V | 00:00:00 | 00:00:00 | 00:00:00 | |
| GYPAP8-17 | 2026-09-04 23:47:24 | 46.15222 | 20.33887 | 125° | 75km/h | 10972m | 5.0m/s | -46.5°C | 21.1% | 246.9hPa | 0V | 00:00:00 | 00:00:00 | 00:00:00 | |
| GYPAP8-17 | 2026-09-04 23:47:04 | 46.15417 | 20.33441 | 111° | 64km/h | 10852m | 5.0m/s | -45.4°C | 18.6% | 251.4hPa | 0V | 00:00:00 | 00:00:00 | 00:00:00 | |
| LZ4TU-5 | 2026-09-04 23:46:04 | 46.15913 | 20.32244 | 124° | 64km/h | 10505m | 3.7m/s | 0°C | 0% | 0hPa | 0V | 00:00:00 | 00:00:00 | 00:00:00 | |
| LZ4TU-5 | 2026-09-04 23:46:00 | 46.15949 | 20.32165 | 125° | 62km/h | 10484m | 5.8m/s | 0°C | 0% | 0hPa | 0V | 00:00:00 | 00:00:00 | 00:00:00 | |
| GYPAP8-17 | 2026-09-04 23:45:19 | 46.16256 | 20.31403 | 121° | 62km/h | 10272m | 4.6m/s | -40.4°C | 13.1% | 274.1hPa | 0V | 00:00:00 | 00:00:00 | 00:00:00 | |
| GYPAP8-17 | 2026-09-04 23:44:24 | 46.16692 | 20.30412 | 119° | 57km/h | 9946m | 3.5m/s | -37.9°C | 12.5% | 287.4hPa | 0V | 00:00:00 | 00:00:00 | 00:00:00 | |
| GYPAP8-17 | 2026-09-04 23:43:24 | 46.17126 | 20.29312 | 132° | 44km/h | 9573m | 5.3m/s | -35.4°C | 11.9% | 303.1hPa | 0V | 00:00:00 | 00:00:00 | 00:00:00 | |
| GYPAP8-17 | 2026-09-04 23:42:28 | 46.17476 | 20.28410 | 119° | 57km/h | 9267m | 5.5m/s | -33.2°C | 12.3% | 316.9hPa | 0V | 00:00:00 | 00:00:00 | 00:00:00 | |
| GYPAP8-17 | 2026-09-04 23:41:33 | 46.17830 | 20.27425 | 107° | 57km/h | 8968m | 5.1m/s | -32.0°C | 21.9% | 330.6hPa | 0V | 00:00:00 | 00:00:00 | 00:00:00 | |
| GYPAP8-17 | 2026-09-04 23:40:39 | 46.18156 | 20.26579 | 128° | 51km/h | 8664m | 5.7m/s | -29.4°C | 21.2% | 345.0hPa | 0V | 00:00:00 | 00:00:00 | 00:00:00 | |
| GYPAP8-17 | 2026-09-04 23:39:45 | 46.18497 | 20.25689 | 123° | 53km/h | 8374m | 5.3m/s | -27.0°C | 0% | 359.2hPa | 0V | 00:00:00 | 00:00:00 | 00:00:00 | |
| GYPAP8-17 | 2026-09-04 23:38:50 | 46.18720 | 20.24850 | 95° | 38km/h | 8055m | 5.5m/s | -24.1°C | 0% | 375.3hPa | 0V | 00:00:00 | 00:00:00 | 00:00:00 | |
| GYPAP8-17 | 2026-09-04 23:37:54 | 46.18963 | 20.24094 | 116° | 38km/h | 7727m | 5.3m/s | 0°C | 0% | 392.6hPa | 0V | 00:00:00 | 00:00:00 | 00:00:00 |